<?xml version="1.0" encoding="UTF-8"?><gpx creator="Wikiloc - https://www.wikiloc.com" version="1.1" xmlns="http://www.topografix.com/GPX/1/1" xmlns:xsi="http://www.w3.org/2001/XMLSchema-instance" xsi:schemaLocation="http://www.topografix.com/GPX/1/1 http://www.topografix.com/GPX/1/1/gpx.xsd"><metadata><name>Wikiloc - 2018/04/22 Urbina - Estíbaliz (GR38 Ruta del vino y el pescado)</name><author><name>Óscar López Hernández</name><link href="https://www.wikiloc.com/wikiloc/user.do?id=1364792"><text>Óscar López Hernández on Wikiloc</text></link></author><link href="https://www.wikiloc.com/hiking-trails/2018-04-22-urbina-estibaliz-gr38-ruta-del-vino-y-el-pescado-24251000"><text>2018/04/22 Urbina - Estíbaliz (GR38 Ruta del vino y el pescado) on Wikiloc</text></link><time>2018-04-22T11:45:02Z</time></metadata><trk><name>2018/04/22 Urbina - Estíbaliz (GR38 Ruta del vino y el pesca...</name><cmt></cmt><desc></desc><trkseg><trkpt lat="42.944137" lon="-2.638093"><ele>542.825</ele><time>2018-04-22T07:27:20Z</time></trkpt><trkpt lat="42.944006" lon="-2.637907"><ele>529.726</ele><time>2018-04-22T07:27:25Z</time></trkpt><trkpt lat="42.943841" lon="-2.638013"><ele>534.108</ele><time>2018-04-22T07:27:44Z</time></trkpt><trkpt lat="42.943732" lon="-2.637797"><ele>533.608</ele><time>2018-04-22T07:27:50Z</time></trkpt><trkpt lat="42.943551" lon="-2.637721"><ele>541.644</ele><time>2018-04-22T07:28:22Z</time></trkpt><trkpt lat="42.943382" lon="-2.637639"><ele>540.966</ele><time>2018-04-22T07:28:38Z</time></trkpt><trkpt lat="42.943203" lon="-2.637549"><ele>534.374</ele><time>2018-04-22T07:28:52Z</time></trkpt><trkpt lat="42.943049" lon="-2.637417"><ele>533.087</ele><time>2018-04-22T07:29:07Z</time></trkpt><trkpt lat="42.942893" lon="-2.637283"><ele>530.453</ele><time>2018-04-22T07:29:22Z</time></trkpt><trkpt lat="42.942736" lon="-2.637155"><ele>529.872</ele><time>2018-04-22T07:29:38Z</time></trkpt><trkpt lat="42.942594" lon="-2.636999"><ele>530.412</ele><time>2018-04-22T07:29:51Z</time></trkpt><trkpt lat="42.942430" lon="-2.636870"><ele>525.932</ele><time>2018-04-22T07:30:04Z</time></trkpt><trkpt lat="42.942261" lon="-2.636764"><ele>528.187</ele><time>2018-04-22T07:30:18Z</time></trkpt><trkpt lat="42.942105" lon="-2.636608"><ele>531.142</ele><time>2018-04-22T07:30:32Z</time></trkpt><trkpt lat="42.942001" lon="-2.636396"><ele>538.626</ele><time>2018-04-22T07:30:46Z</time></trkpt><trkpt lat="42.941965" lon="-2.636152"><ele>530.408</ele><time>2018-04-22T07:30:59Z</time></trkpt><trkpt lat="42.941987" lon="-2.635908"><ele>523.590</ele><time>2018-04-22T07:31:13Z</time></trkpt><trkpt lat="42.942013" lon="-2.635652"><ele>525.212</ele><time>2018-04-22T07:31:28Z</time></trkpt><trkpt lat="42.942032" lon="-2.635395"><ele>526.390</ele><time>2018-04-22T07:31:42Z</time></trkpt><trkpt lat="42.942050" lon="-2.635138"><ele>532.563</ele><time>2018-04-22T07:31:58Z</time></trkpt><trkpt lat="42.942125" lon="-2.634914"><ele>539.079</ele><time>2018-04-22T07:32:09Z</time></trkpt><trkpt lat="42.942227" lon="-2.634711"><ele>542.768</ele><time>2018-04-22T07:32:20Z</time></trkpt><trkpt lat="42.942352" lon="-2.634517"><ele>545.118</ele><time>2018-04-22T07:32:33Z</time></trkpt><trkpt lat="42.942486" lon="-2.634346"><ele>547.468</ele><time>2018-04-22T07:32:46Z</time></trkpt><trkpt lat="42.942587" lon="-2.634133"><ele>548.389</ele><time>2018-04-22T07:32:59Z</time></trkpt><trkpt lat="42.942671" lon="-2.633897"><ele>548.906</ele><time>2018-04-22T07:33:14Z</time></trkpt><trkpt lat="42.942663" lon="-2.633639"><ele>546.626</ele><time>2018-04-22T07:33:29Z</time></trkpt><trkpt lat="42.942631" lon="-2.633387"><ele>547.108</ele><time>2018-04-22T07:33:43Z</time></trkpt><trkpt lat="42.942723" lon="-2.633152"><ele>545.180</ele><time>2018-04-22T07:34:11Z</time></trkpt><trkpt lat="42.942889" lon="-2.633020"><ele>545.192</ele><time>2018-04-22T07:34:24Z</time></trkpt><trkpt lat="42.943048" lon="-2.632871"><ele>544.560</ele><time>2018-04-22T07:34:37Z</time></trkpt><trkpt lat="42.943203" lon="-2.632724"><ele>543.543</ele><time>2018-04-22T07:34:50Z</time></trkpt><trkpt lat="42.943374" lon="-2.632633"><ele>547.729</ele><time>2018-04-22T07:35:02Z</time></trkpt><trkpt lat="42.943543" lon="-2.632540"><ele>548.018</ele><time>2018-04-22T07:35:15Z</time></trkpt><trkpt lat="42.943728" lon="-2.632488"><ele>548.338</ele><time>2018-04-22T07:35:28Z</time></trkpt><trkpt lat="42.943898" lon="-2.632409"><ele>547.478</ele><time>2018-04-22T07:35:40Z</time></trkpt><trkpt lat="42.944070" lon="-2.632336"><ele>547.296</ele><time>2018-04-22T07:35:52Z</time></trkpt><trkpt lat="42.944248" lon="-2.632273"><ele>546.631</ele><time>2018-04-22T07:36:05Z</time></trkpt><trkpt lat="42.944439" lon="-2.632241"><ele>546.024</ele><time>2018-04-22T07:36:18Z</time></trkpt><trkpt lat="42.944617" lon="-2.632201"><ele>546.508</ele><time>2018-04-22T07:36:30Z</time></trkpt><trkpt lat="42.944807" lon="-2.632154"><ele>546.641</ele><time>2018-04-22T07:36:42Z</time></trkpt><trkpt lat="42.944998" lon="-2.632090"><ele>545.983</ele><time>2018-04-22T07:36:55Z</time></trkpt><trkpt lat="42.945174" lon="-2.632020"><ele>546.911</ele><time>2018-04-22T07:37:06Z</time></trkpt><trkpt lat="42.945356" lon="-2.631952"><ele>546.384</ele><time>2018-04-22T07:37:19Z</time></trkpt><trkpt lat="42.945544" lon="-2.631883"><ele>544.350</ele><time>2018-04-22T07:37:32Z</time></trkpt><trkpt lat="42.945727" lon="-2.631821"><ele>543.999</ele><time>2018-04-22T07:37:46Z</time></trkpt><trkpt lat="42.945902" lon="-2.631727"><ele>544.969</ele><time>2018-04-22T07:37:58Z</time></trkpt><trkpt lat="42.946078" lon="-2.631619"><ele>545.959</ele><time>2018-04-22T07:38:12Z</time></trkpt><trkpt lat="42.946249" lon="-2.631519"><ele>545.816</ele><time>2018-04-22T07:38:25Z</time></trkpt><trkpt lat="42.946422" lon="-2.631406"><ele>547.976</ele><time>2018-04-22T07:38:38Z</time></trkpt><trkpt lat="42.946603" lon="-2.631313"><ele>546.113</ele><time>2018-04-22T07:38:51Z</time></trkpt><trkpt lat="42.946776" lon="-2.631222"><ele>546.808</ele><time>2018-04-22T07:39:03Z</time></trkpt><trkpt lat="42.946794" lon="-2.630974"><ele>548.453</ele><time>2018-04-22T07:39:18Z</time></trkpt><trkpt lat="42.946729" lon="-2.630727"><ele>543.625</ele><time>2018-04-22T07:39:30Z</time></trkpt><trkpt lat="42.946651" lon="-2.630483"><ele>548.093</ele><time>2018-04-22T07:39:42Z</time></trkpt><trkpt lat="42.946596" lon="-2.630245"><ele>551.636</ele><time>2018-04-22T07:39:53Z</time></trkpt><trkpt lat="42.946456" lon="-2.630089"><ele>553.072</ele><time>2018-04-22T07:40:08Z</time></trkpt><trkpt lat="42.946275" lon="-2.630053"><ele>553.091</ele><time>2018-04-22T07:40:20Z</time></trkpt><trkpt lat="42.946087" lon="-2.629998"><ele>554.591</ele><time>2018-04-22T07:40:32Z</time></trkpt><trkpt lat="42.945896" lon="-2.629946"><ele>554.241</ele><time>2018-04-22T07:40:44Z</time></trkpt><trkpt lat="42.945737" lon="-2.629827"><ele>551.122</ele><time>2018-04-22T07:40:56Z</time></trkpt><trkpt lat="42.945614" lon="-2.629639"><ele>553.062</ele><time>2018-04-22T07:41:07Z</time></trkpt><trkpt lat="42.945574" lon="-2.629395"><ele>553.408</ele><time>2018-04-22T07:41:19Z</time></trkpt><trkpt lat="42.945340" lon="-2.628446"><ele>556.108</ele><time>2018-04-22T07:41:44Z</time></trkpt><trkpt lat="42.945418" lon="-2.628761"><ele>559.434</ele><time>2018-04-22T07:41:45Z</time></trkpt><trkpt lat="42.945462" lon="-2.628513"><ele>554.626</ele><time>2018-04-22T07:42:00Z</time></trkpt><trkpt lat="42.945479" lon="-2.628251"><ele>554.894</ele><time>2018-04-22T07:42:13Z</time></trkpt><trkpt lat="42.945295" lon="-2.628225"><ele>560.247</ele><time>2018-04-22T07:42:27Z</time></trkpt><trkpt lat="42.945137" lon="-2.628352"><ele>561.353</ele><time>2018-04-22T07:42:37Z</time></trkpt><trkpt lat="42.944957" lon="-2.628457"><ele>566.132</ele><time>2018-04-22T07:42:50Z</time></trkpt><trkpt lat="42.944801" lon="-2.628619"><ele>569.492</ele><time>2018-04-22T07:43:00Z</time></trkpt><trkpt lat="42.944632" lon="-2.628727"><ele>572.522</ele><time>2018-04-22T07:43:13Z</time></trkpt><trkpt lat="42.944461" lon="-2.628852"><ele>577.391</ele><time>2018-04-22T07:43:26Z</time></trkpt><trkpt lat="42.944297" lon="-2.628979"><ele>579.781</ele><time>2018-04-22T07:43:39Z</time></trkpt><trkpt lat="42.944123" lon="-2.629061"><ele>580.219</ele><time>2018-04-22T07:43:54Z</time></trkpt><trkpt lat="42.943938" lon="-2.629011"><ele>583.108</ele><time>2018-04-22T07:44:12Z</time></trkpt><trkpt lat="42.943799" lon="-2.628834"><ele>588.521</ele><time>2018-04-22T07:44:29Z</time></trkpt><trkpt lat="42.943690" lon="-2.628634"><ele>595.113</ele><time>2018-04-22T07:49:15Z</time></trkpt><trkpt lat="42.943577" lon="-2.628438"><ele>598.111</ele><time>2018-04-22T07:49:28Z</time></trkpt><trkpt lat="42.943474" lon="-2.628219"><ele>594.814</ele><time>2018-04-22T07:49:43Z</time></trkpt><trkpt lat="42.943409" lon="-2.627986"><ele>600.660</ele><time>2018-04-22T07:49:57Z</time></trkpt><trkpt lat="42.943383" lon="-2.627743"><ele>604.589</ele><time>2018-04-22T07:50:08Z</time></trkpt><trkpt lat="42.943382" lon="-2.627485"><ele>610.649</ele><time>2018-04-22T07:50:21Z</time></trkpt><trkpt lat="42.943342" lon="-2.627240"><ele>614.219</ele><time>2018-04-22T07:50:37Z</time></trkpt><trkpt lat="42.943300" lon="-2.626976"><ele>616.477</ele><time>2018-04-22T07:50:50Z</time></trkpt><trkpt lat="42.943221" lon="-2.626742"><ele>619.361</ele><time>2018-04-22T07:51:02Z</time></trkpt><trkpt lat="42.943148" lon="-2.626517"><ele>623.927</ele><time>2018-04-22T07:51:15Z</time></trkpt><trkpt lat="42.943055" lon="-2.626305"><ele>624.808</ele><time>2018-04-22T07:51:34Z</time></trkpt><trkpt lat="42.943002" lon="-2.626054"><ele>628.689</ele><time>2018-04-22T07:51:47Z</time></trkpt><trkpt lat="42.942928" lon="-2.625809"><ele>630.651</ele><time>2018-04-22T07:52:01Z</time></trkpt><trkpt lat="42.942850" lon="-2.625587"><ele>630.859</ele><time>2018-04-22T07:52:12Z</time></trkpt><trkpt lat="42.942795" lon="-2.625348"><ele>628.912</ele><time>2018-04-22T07:52:23Z</time></trkpt><trkpt lat="42.942759" lon="-2.625092"><ele>630.218</ele><time>2018-04-22T07:52:36Z</time></trkpt><trkpt lat="42.942732" lon="-2.624838"><ele>632.897</ele><time>2018-04-22T07:52:52Z</time></trkpt><trkpt lat="42.942765" lon="-2.624586"><ele>642.057</ele><time>2018-04-22T07:53:09Z</time></trkpt><trkpt lat="42.942760" lon="-2.624334"><ele>642.947</ele><time>2018-04-22T07:53:22Z</time></trkpt><trkpt lat="42.942723" lon="-2.624087"><ele>641.949</ele><time>2018-04-22T07:53:35Z</time></trkpt><trkpt lat="42.942724" lon="-2.623828"><ele>642.902</ele><time>2018-04-22T07:53:53Z</time></trkpt><trkpt lat="42.942714" lon="-2.623565"><ele>643.022</ele><time>2018-04-22T07:54:09Z</time></trkpt><trkpt lat="42.942659" lon="-2.623318"><ele>645.808</ele><time>2018-04-22T07:54:21Z</time></trkpt><trkpt lat="42.942651" lon="-2.623057"><ele>647.286</ele><time>2018-04-22T07:54:37Z</time></trkpt><trkpt lat="42.942593" lon="-2.622820"><ele>651.778</ele><time>2018-04-22T07:54:52Z</time></trkpt><trkpt lat="42.942546" lon="-2.622579"><ele>654.526</ele><time>2018-04-22T07:55:30Z</time></trkpt><trkpt lat="42.942540" lon="-2.622330"><ele>655.329</ele><time>2018-04-22T07:55:54Z</time></trkpt><trkpt lat="42.942576" lon="-2.622074"><ele>655.375</ele><time>2018-04-22T07:56:14Z</time></trkpt><trkpt lat="42.942599" lon="-2.621812"><ele>656.264</ele><time>2018-04-22T07:56:27Z</time></trkpt><trkpt lat="42.942688" lon="-2.621593"><ele>657.654</ele><time>2018-04-22T07:56:38Z</time></trkpt><trkpt lat="42.942785" lon="-2.621372"><ele>661.194</ele><time>2018-04-22T07:56:50Z</time></trkpt><trkpt lat="42.942892" lon="-2.621155"><ele>665.867</ele><time>2018-04-22T07:57:04Z</time></trkpt><trkpt lat="42.943022" lon="-2.620972"><ele>670.881</ele><time>2018-04-22T07:57:19Z</time></trkpt><trkpt lat="42.943113" lon="-2.620752"><ele>668.719</ele><time>2018-04-22T07:57:32Z</time></trkpt><trkpt lat="42.943215" lon="-2.620543"><ele>671.208</ele><time>2018-04-22T07:57:45Z</time></trkpt><trkpt lat="42.943325" lon="-2.620347"><ele>676.088</ele><time>2018-04-22T07:58:04Z</time></trkpt><trkpt lat="42.943483" lon="-2.620208"><ele>677.770</ele><time>2018-04-22T07:58:21Z</time></trkpt><trkpt lat="42.943645" lon="-2.620102"><ele>681.658</ele><time>2018-04-22T07:58:33Z</time></trkpt><trkpt lat="42.943817" lon="-2.620000"><ele>685.241</ele><time>2018-04-22T07:58:47Z</time></trkpt><trkpt lat="42.943992" lon="-2.619913"><ele>687.437</ele><time>2018-04-22T07:59:00Z</time></trkpt><trkpt lat="42.944126" lon="-2.619731"><ele>687.196</ele><time>2018-04-22T07:59:13Z</time></trkpt><trkpt lat="42.944311" lon="-2.619657"><ele>685.496</ele><time>2018-04-22T07:59:29Z</time></trkpt><trkpt lat="42.944476" lon="-2.619543"><ele>689.716</ele><time>2018-04-22T07:59:42Z</time></trkpt><trkpt lat="42.944647" lon="-2.619461"><ele>694.398</ele><time>2018-04-22T07:59:56Z</time></trkpt><trkpt lat="42.944831" lon="-2.619385"><ele>700.715</ele><time>2018-04-22T08:00:10Z</time></trkpt><trkpt lat="42.944898" lon="-2.619153"><ele>700.926</ele><time>2018-04-22T08:00:26Z</time></trkpt><trkpt lat="42.944843" lon="-2.618919"><ele>702.808</ele><time>2018-04-22T08:01:07Z</time></trkpt><trkpt lat="42.944813" lon="-2.619162"><ele>701.111</ele><time>2018-04-22T08:09:10Z</time></trkpt><trkpt lat="42.944672" lon="-2.619338"><ele>699.763</ele><time>2018-04-22T08:09:50Z</time></trkpt><trkpt lat="42.944504" lon="-2.619434"><ele>696.971</ele><time>2018-04-22T08:10:03Z</time></trkpt><trkpt lat="42.944349" lon="-2.619570"><ele>692.164</ele><time>2018-04-22T08:10:17Z</time></trkpt><trkpt lat="42.944183" lon="-2.619674"><ele>688.110</ele><time>2018-04-22T08:10:30Z</time></trkpt><trkpt lat="42.944003" lon="-2.619765"><ele>687.349</ele><time>2018-04-22T08:10:48Z</time></trkpt><trkpt lat="42.943811" lon="-2.619805"><ele>688.279</ele><time>2018-04-22T08:11:02Z</time></trkpt><trkpt lat="42.943634" lon="-2.619861"><ele>687.259</ele><time>2018-04-22T08:11:14Z</time></trkpt><trkpt lat="42.943453" lon="-2.619904"><ele>686.075</ele><time>2018-04-22T08:11:25Z</time></trkpt><trkpt lat="42.943260" lon="-2.619939"><ele>688.128</ele><time>2018-04-22T08:11:38Z</time></trkpt><trkpt lat="42.943086" lon="-2.620046"><ele>686.920</ele><time>2018-04-22T08:11:50Z</time></trkpt><trkpt lat="42.942914" lon="-2.620149"><ele>682.808</ele><time>2018-04-22T08:12:02Z</time></trkpt><trkpt lat="42.942772" lon="-2.620309"><ele>675.419</ele><time>2018-04-22T08:12:15Z</time></trkpt><trkpt lat="42.942603" lon="-2.620393"><ele>673.831</ele><time>2018-04-22T08:12:26Z</time></trkpt><trkpt lat="42.942440" lon="-2.620538"><ele>674.169</ele><time>2018-04-22T08:12:39Z</time></trkpt><trkpt lat="42.942280" lon="-2.620662"><ele>672.352</ele><time>2018-04-22T08:12:51Z</time></trkpt><trkpt lat="42.942124" lon="-2.620809"><ele>674.118</ele><time>2018-04-22T08:13:05Z</time></trkpt><trkpt lat="42.941951" lon="-2.620885"><ele>670.677</ele><time>2018-04-22T08:13:19Z</time></trkpt><trkpt lat="42.941785" lon="-2.621001"><ele>672.897</ele><time>2018-04-22T08:13:31Z</time></trkpt><trkpt lat="42.941610" lon="-2.621072"><ele>678.077</ele><time>2018-04-22T08:13:43Z</time></trkpt><trkpt lat="42.941450" lon="-2.621200"><ele>680.958</ele><time>2018-04-22T08:14:01Z</time></trkpt><trkpt lat="42.941298" lon="-2.621339"><ele>681.252</ele><time>2018-04-22T08:14:26Z</time></trkpt><trkpt lat="42.941169" lon="-2.621514"><ele>678.117</ele><time>2018-04-22T08:14:38Z</time></trkpt><trkpt lat="42.941012" lon="-2.621674"><ele>678.608</ele><time>2018-04-22T08:14:48Z</time></trkpt><trkpt lat="42.940889" lon="-2.621862"><ele>677.187</ele><time>2018-04-22T08:14:58Z</time></trkpt><trkpt lat="42.940707" lon="-2.621893"><ele>671.519</ele><time>2018-04-22T08:15:09Z</time></trkpt><trkpt lat="42.940538" lon="-2.621994"><ele>670.267</ele><time>2018-04-22T08:15:20Z</time></trkpt><trkpt lat="42.940363" lon="-2.622097"><ele>658.090</ele><time>2018-04-22T08:15:42Z</time></trkpt><trkpt lat="42.940208" lon="-2.622249"><ele>654.956</ele><time>2018-04-22T08:15:53Z</time></trkpt><trkpt lat="42.940038" lon="-2.622356"><ele>656.665</ele><time>2018-04-22T08:16:08Z</time></trkpt><trkpt lat="42.939846" lon="-2.622335"><ele>655.385</ele><time>2018-04-22T08:16:23Z</time></trkpt><trkpt lat="42.939674" lon="-2.622455"><ele>650.875</ele><time>2018-04-22T08:16:34Z</time></trkpt><trkpt lat="42.939501" lon="-2.622556"><ele>648.056</ele><time>2018-04-22T08:16:47Z</time></trkpt><trkpt lat="42.939336" lon="-2.622673"><ele>646.759</ele><time>2018-04-22T08:17:01Z</time></trkpt><trkpt lat="42.939189" lon="-2.622826"><ele>645.014</ele><time>2018-04-22T08:17:13Z</time></trkpt><trkpt lat="42.939033" lon="-2.622969"><ele>644.008</ele><time>2018-04-22T08:17:27Z</time></trkpt><trkpt lat="42.938891" lon="-2.623149"><ele>645.327</ele><time>2018-04-22T08:17:40Z</time></trkpt><trkpt lat="42.938741" lon="-2.623304"><ele>648.039</ele><time>2018-04-22T08:17:57Z</time></trkpt><trkpt lat="42.938565" lon="-2.623410"><ele>642.887</ele><time>2018-04-22T08:18:10Z</time></trkpt><trkpt lat="42.938442" lon="-2.623613"><ele>638.940</ele><time>2018-04-22T08:18:24Z</time></trkpt><trkpt lat="42.938287" lon="-2.623743"><ele>639.316</ele><time>2018-04-22T08:18:36Z</time></trkpt><trkpt lat="42.938130" lon="-2.623868"><ele>641.795</ele><time>2018-04-22T08:18:46Z</time></trkpt><trkpt lat="42.937975" lon="-2.624022"><ele>640.945</ele><time>2018-04-22T08:18:57Z</time></trkpt><trkpt lat="42.937850" lon="-2.624210"><ele>640.075</ele><time>2018-04-22T08:19:09Z</time></trkpt><trkpt lat="42.937773" lon="-2.624449"><ele>639.264</ele><time>2018-04-22T08:19:22Z</time></trkpt><trkpt lat="42.937643" lon="-2.624642"><ele>638.706</ele><time>2018-04-22T08:19:34Z</time></trkpt><trkpt lat="42.937473" lon="-2.624754"><ele>640.616</ele><time>2018-04-22T08:19:45Z</time></trkpt><trkpt lat="42.937301" lon="-2.624856"><ele>638.308</ele><time>2018-04-22T08:19:57Z</time></trkpt><trkpt lat="42.937113" lon="-2.624905"><ele>638.468</ele><time>2018-04-22T08:20:09Z</time></trkpt><trkpt lat="42.936927" lon="-2.624966"><ele>637.550</ele><time>2018-04-22T08:20:21Z</time></trkpt><trkpt lat="42.936742" lon="-2.624956"><ele>630.628</ele><time>2018-04-22T08:20:34Z</time></trkpt><trkpt lat="42.936686" lon="-2.624717"><ele>631.681</ele><time>2018-04-22T08:20:54Z</time></trkpt><trkpt lat="42.936513" lon="-2.624628"><ele>630.117</ele><time>2018-04-22T08:21:07Z</time></trkpt><trkpt lat="42.936333" lon="-2.624563"><ele>631.286</ele><time>2018-04-22T08:21:18Z</time></trkpt><trkpt lat="42.936152" lon="-2.624612"><ele>630.356</ele><time>2018-04-22T08:21:28Z</time></trkpt><trkpt lat="42.935977" lon="-2.624696"><ele>634.196</ele><time>2018-04-22T08:21:39Z</time></trkpt><trkpt lat="42.935790" lon="-2.624701"><ele>631.196</ele><time>2018-04-22T08:21:54Z</time></trkpt><trkpt lat="42.935601" lon="-2.624758"><ele>630.031</ele><time>2018-04-22T08:22:07Z</time></trkpt><trkpt lat="42.935423" lon="-2.624692"><ele>629.324</ele><time>2018-04-22T08:22:16Z</time></trkpt><trkpt lat="42.935231" lon="-2.624685"><ele>632.108</ele><time>2018-04-22T08:22:29Z</time></trkpt><trkpt lat="42.935059" lon="-2.624606"><ele>633.821</ele><time>2018-04-22T08:22:41Z</time></trkpt><trkpt lat="42.934871" lon="-2.624589"><ele>634.363</ele><time>2018-04-22T08:22:53Z</time></trkpt><trkpt lat="42.934683" lon="-2.624619"><ele>634.531</ele><time>2018-04-22T08:23:04Z</time></trkpt><trkpt lat="42.934499" lon="-2.624681"><ele>636.854</ele><time>2018-04-22T08:23:17Z</time></trkpt><trkpt lat="42.934309" lon="-2.624722"><ele>637.950</ele><time>2018-04-22T08:23:34Z</time></trkpt><trkpt lat="42.934129" lon="-2.624673"><ele>638.929</ele><time>2018-04-22T08:23:48Z</time></trkpt><trkpt lat="42.933947" lon="-2.624677"><ele>637.039</ele><time>2018-04-22T08:24:03Z</time></trkpt><trkpt lat="42.933761" lon="-2.624675"><ele>633.489</ele><time>2018-04-22T08:24:16Z</time></trkpt><trkpt lat="42.933572" lon="-2.624626"><ele>632.419</ele><time>2018-04-22T08:24:32Z</time></trkpt><trkpt lat="42.933414" lon="-2.624493"><ele>635.109</ele><time>2018-04-22T08:24:44Z</time></trkpt><trkpt lat="42.933275" lon="-2.624322"><ele>635.019</ele><time>2018-04-22T08:24:59Z</time></trkpt><trkpt lat="42.933099" lon="-2.624236"><ele>638.008</ele><time>2018-04-22T08:25:17Z</time></trkpt><trkpt lat="42.932924" lon="-2.624339"><ele>634.593</ele><time>2018-04-22T08:25:32Z</time></trkpt><trkpt lat="42.932755" lon="-2.624429"><ele>631.495</ele><time>2018-04-22T08:25:45Z</time></trkpt><trkpt lat="42.932572" lon="-2.624421"><ele>632.043</ele><time>2018-04-22T08:25:58Z</time></trkpt><trkpt lat="42.932392" lon="-2.624379"><ele>630.836</ele><time>2018-04-22T08:26:10Z</time></trkpt><trkpt lat="42.932202" lon="-2.624332"><ele>628.512</ele><time>2018-04-22T08:26:24Z</time></trkpt><trkpt lat="42.932018" lon="-2.624305"><ele>627.891</ele><time>2018-04-22T08:26:36Z</time></trkpt><trkpt lat="42.931827" lon="-2.624260"><ele>625.251</ele><time>2018-04-22T08:26:49Z</time></trkpt><trkpt lat="42.931648" lon="-2.624235"><ele>621.711</ele><time>2018-04-22T08:27:01Z</time></trkpt><trkpt lat="42.931455" lon="-2.624228"><ele>623.518</ele><time>2018-04-22T08:27:13Z</time></trkpt><trkpt lat="42.931267" lon="-2.624184"><ele>627.798</ele><time>2018-04-22T08:27:24Z</time></trkpt><trkpt lat="42.931086" lon="-2.624186"><ele>624.917</ele><time>2018-04-22T08:27:50Z</time></trkpt><trkpt lat="42.930891" lon="-2.624202"><ele>623.108</ele><time>2018-04-22T08:28:01Z</time></trkpt><trkpt lat="42.930710" lon="-2.624271"><ele>617.843</ele><time>2018-04-22T08:28:13Z</time></trkpt><trkpt lat="42.930532" lon="-2.624339"><ele>618.425</ele><time>2018-04-22T08:28:25Z</time></trkpt><trkpt lat="42.930361" lon="-2.624443"><ele>617.963</ele><time>2018-04-22T08:28:37Z</time></trkpt><trkpt lat="42.930213" lon="-2.624611"><ele>618.186</ele><time>2018-04-22T08:28:49Z</time></trkpt><trkpt lat="42.930069" lon="-2.624766"><ele>615.942</ele><time>2018-04-22T08:29:02Z</time></trkpt><trkpt lat="42.929927" lon="-2.624927"><ele>615.611</ele><time>2018-04-22T08:29:14Z</time></trkpt><trkpt lat="42.929779" lon="-2.625081"><ele>617.271</ele><time>2018-04-22T08:29:25Z</time></trkpt><trkpt lat="42.929634" lon="-2.625242"><ele>614.391</ele><time>2018-04-22T08:29:37Z</time></trkpt><trkpt lat="42.929480" lon="-2.625404"><ele>610.387</ele><time>2018-04-22T08:29:50Z</time></trkpt><trkpt lat="42.929330" lon="-2.625570"><ele>607.342</ele><time>2018-04-22T08:30:03Z</time></trkpt><trkpt lat="42.929184" lon="-2.625719"><ele>610.226</ele><time>2018-04-22T08:30:14Z</time></trkpt><trkpt lat="42.929038" lon="-2.625868"><ele>611.608</ele><time>2018-04-22T08:30:25Z</time></trkpt><trkpt lat="42.928891" lon="-2.626011"><ele>608.730</ele><time>2018-04-22T08:30:37Z</time></trkpt><trkpt lat="42.928739" lon="-2.626173"><ele>609.942</ele><time>2018-04-22T08:30:48Z</time></trkpt><trkpt lat="42.928590" lon="-2.626341"><ele>607.440</ele><time>2018-04-22T08:31:00Z</time></trkpt><trkpt lat="42.928438" lon="-2.626503"><ele>607.293</ele><time>2018-04-22T08:31:12Z</time></trkpt><trkpt lat="42.928265" lon="-2.626615"><ele>600.769</ele><time>2018-04-22T08:31:27Z</time></trkpt><trkpt lat="42.928097" lon="-2.626712"><ele>598.698</ele><time>2018-04-22T08:31:39Z</time></trkpt><trkpt lat="42.927930" lon="-2.626829"><ele>595.288</ele><time>2018-04-22T08:31:51Z</time></trkpt><trkpt lat="42.927761" lon="-2.626968"><ele>592.968</ele><time>2018-04-22T08:32:02Z</time></trkpt><trkpt lat="42.927597" lon="-2.627081"><ele>589.397</ele><time>2018-04-22T08:32:14Z</time></trkpt><trkpt lat="42.927436" lon="-2.627193"><ele>588.823</ele><time>2018-04-22T08:32:25Z</time></trkpt><trkpt lat="42.927264" lon="-2.627314"><ele>588.625</ele><time>2018-04-22T08:32:37Z</time></trkpt><trkpt lat="42.927091" lon="-2.627412"><ele>589.708</ele><time>2018-04-22T08:32:48Z</time></trkpt><trkpt lat="42.926916" lon="-2.627499"><ele>585.241</ele><time>2018-04-22T08:33:00Z</time></trkpt><trkpt lat="42.926735" lon="-2.627592"><ele>585.023</ele><time>2018-04-22T08:33:13Z</time></trkpt><trkpt lat="42.926562" lon="-2.627682"><ele>582.521</ele><time>2018-04-22T08:33:24Z</time></trkpt><trkpt lat="42.926393" lon="-2.627808"><ele>581.924</ele><time>2018-04-22T08:33:35Z</time></trkpt><trkpt lat="42.926218" lon="-2.627920"><ele>583.370</ele><time>2018-04-22T08:33:46Z</time></trkpt><trkpt lat="42.926036" lon="-2.627977"><ele>578.679</ele><time>2018-04-22T08:33:59Z</time></trkpt><trkpt lat="42.925853" lon="-2.628023"><ele>576.219</ele><time>2018-04-22T08:34:11Z</time></trkpt><trkpt lat="42.925675" lon="-2.628092"><ele>572.989</ele><time>2018-04-22T08:34:23Z</time></trkpt><trkpt lat="42.925490" lon="-2.628145"><ele>571.483</ele><time>2018-04-22T08:34:35Z</time></trkpt><trkpt lat="42.925298" lon="-2.628187"><ele>567.225</ele><time>2018-04-22T08:34:48Z</time></trkpt><trkpt lat="42.925113" lon="-2.628242"><ele>562.117</ele><time>2018-04-22T08:35:01Z</time></trkpt><trkpt lat="42.924922" lon="-2.628299"><ele>563.708</ele><time>2018-04-22T08:35:13Z</time></trkpt><trkpt lat="42.924733" lon="-2.628347"><ele>560.810</ele><time>2018-04-22T08:35:25Z</time></trkpt><trkpt lat="42.924550" lon="-2.628387"><ele>558.482</ele><time>2018-04-22T08:35:37Z</time></trkpt><trkpt lat="42.924358" lon="-2.628437"><ele>557.680</ele><time>2018-04-22T08:35:50Z</time></trkpt><trkpt lat="42.924178" lon="-2.628491"><ele>553.093</ele><time>2018-04-22T08:36:02Z</time></trkpt><trkpt lat="42.923987" lon="-2.628500"><ele>546.869</ele><time>2018-04-22T08:36:15Z</time></trkpt><trkpt lat="42.923811" lon="-2.628564"><ele>542.868</ele><time>2018-04-22T08:36:28Z</time></trkpt><trkpt lat="42.923634" lon="-2.628645"><ele>543.688</ele><time>2018-04-22T08:36:40Z</time></trkpt><trkpt lat="42.923458" lon="-2.628719"><ele>543.428</ele><time>2018-04-22T08:36:51Z</time></trkpt><trkpt lat="42.923271" lon="-2.628785"><ele>541.411</ele><time>2018-04-22T08:37:03Z</time></trkpt><trkpt lat="42.923087" lon="-2.628815"><ele>538.621</ele><time>2018-04-22T08:37:14Z</time></trkpt><trkpt lat="42.922901" lon="-2.628838"><ele>534.903</ele><time>2018-04-22T08:37:27Z</time></trkpt><trkpt lat="42.922713" lon="-2.628857"><ele>532.108</ele><time>2018-04-22T08:37:40Z</time></trkpt><trkpt lat="42.922523" lon="-2.628900"><ele>532.593</ele><time>2018-04-22T08:37:52Z</time></trkpt><trkpt lat="42.922329" lon="-2.628930"><ele>532.595</ele><time>2018-04-22T08:38:15Z</time></trkpt><trkpt lat="42.922143" lon="-2.628960"><ele>531.643</ele><time>2018-04-22T08:38:28Z</time></trkpt><trkpt lat="42.921954" lon="-2.628985"><ele>530.276</ele><time>2018-04-22T08:38:41Z</time></trkpt><trkpt lat="42.921776" lon="-2.629033"><ele>528.632</ele><time>2018-04-22T08:38:53Z</time></trkpt><trkpt lat="42.921599" lon="-2.629091"><ele>530.551</ele><time>2018-04-22T08:39:04Z</time></trkpt><trkpt lat="42.921411" lon="-2.629135"><ele>528.231</ele><time>2018-04-22T08:39:15Z</time></trkpt><trkpt lat="42.921228" lon="-2.629165"><ele>525.861</ele><time>2018-04-22T08:39:28Z</time></trkpt><trkpt lat="42.921038" lon="-2.629196"><ele>526.278</ele><time>2018-04-22T08:39:41Z</time></trkpt><trkpt lat="42.920853" lon="-2.629246"><ele>525.533</ele><time>2018-04-22T08:39:54Z</time></trkpt><trkpt lat="42.920671" lon="-2.629293"><ele>524.126</ele><time>2018-04-22T08:40:05Z</time></trkpt><trkpt lat="42.920489" lon="-2.629337"><ele>525.908</ele><time>2018-04-22T08:40:15Z</time></trkpt><trkpt lat="42.920303" lon="-2.629388"><ele>525.159</ele><time>2018-04-22T08:40:25Z</time></trkpt><trkpt lat="42.920118" lon="-2.629422"><ele>523.721</ele><time>2018-04-22T08:40:36Z</time></trkpt><trkpt lat="42.919930" lon="-2.629448"><ele>521.699</ele><time>2018-04-22T08:40:48Z</time></trkpt><trkpt lat="42.919747" lon="-2.629484"><ele>520.432</ele><time>2018-04-22T08:41:00Z</time></trkpt><trkpt lat="42.919565" lon="-2.629539"><ele>525.478</ele><time>2018-04-22T08:41:10Z</time></trkpt><trkpt lat="42.919386" lon="-2.629597"><ele>526.577</ele><time>2018-04-22T08:41:21Z</time></trkpt><trkpt lat="42.919204" lon="-2.629625"><ele>525.937</ele><time>2018-04-22T08:41:32Z</time></trkpt><trkpt lat="42.919026" lon="-2.629593"><ele>522.817</ele><time>2018-04-22T08:41:45Z</time></trkpt><trkpt lat="42.918846" lon="-2.629584"><ele>526.882</ele><time>2018-04-22T08:41:56Z</time></trkpt><trkpt lat="42.918655" lon="-2.629549"><ele>527.443</ele><time>2018-04-22T08:42:08Z</time></trkpt><trkpt lat="42.918475" lon="-2.629497"><ele>527.617</ele><time>2018-04-22T08:42:19Z</time></trkpt><trkpt lat="42.918313" lon="-2.629387"><ele>521.408</ele><time>2018-04-22T08:42:32Z</time></trkpt><trkpt lat="42.918137" lon="-2.629329"><ele>519.310</ele><time>2018-04-22T08:42:44Z</time></trkpt><trkpt lat="42.917955" lon="-2.629269"><ele>519.422</ele><time>2018-04-22T08:42:55Z</time></trkpt><trkpt lat="42.917774" lon="-2.629217"><ele>520.080</ele><time>2018-04-22T08:43:06Z</time></trkpt><trkpt lat="42.917577" lon="-2.629220"><ele>526.423</ele><time>2018-04-22T08:43:16Z</time></trkpt><trkpt lat="42.917388" lon="-2.629194"><ele>529.079</ele><time>2018-04-22T08:43:27Z</time></trkpt><trkpt lat="42.917203" lon="-2.629157"><ele>530.898</ele><time>2018-04-22T08:43:39Z</time></trkpt><trkpt lat="42.917012" lon="-2.629125"><ele>532.178</ele><time>2018-04-22T08:43:52Z</time></trkpt><trkpt lat="42.916829" lon="-2.629064"><ele>532.328</ele><time>2018-04-22T08:44:04Z</time></trkpt><trkpt lat="42.916654" lon="-2.628971"><ele>531.879</ele><time>2018-04-22T08:44:16Z</time></trkpt><trkpt lat="42.916481" lon="-2.628855"><ele>529.805</ele><time>2018-04-22T08:44:29Z</time></trkpt><trkpt lat="42.916336" lon="-2.628686"><ele>528.825</ele><time>2018-04-22T08:45:06Z</time></trkpt><trkpt lat="42.916157" lon="-2.628592"><ele>530.608</ele><time>2018-04-22T08:45:17Z</time></trkpt><trkpt lat="42.915979" lon="-2.628488"><ele>527.069</ele><time>2018-04-22T08:45:29Z</time></trkpt><trkpt lat="42.915798" lon="-2.628491"><ele>526.311</ele><time>2018-04-22T08:45:40Z</time></trkpt><trkpt lat="42.915606" lon="-2.628484"><ele>522.249</ele><time>2018-04-22T08:45:57Z</time></trkpt><trkpt lat="42.915424" lon="-2.628534"><ele>516.872</ele><time>2018-04-22T08:46:12Z</time></trkpt><trkpt lat="42.915249" lon="-2.628606"><ele>516.838</ele><time>2018-04-22T08:46:24Z</time></trkpt><trkpt lat="42.915060" lon="-2.628652"><ele>518.087</ele><time>2018-04-22T08:46:37Z</time></trkpt><trkpt lat="42.914886" lon="-2.628749"><ele>524.367</ele><time>2018-04-22T08:46:48Z</time></trkpt><trkpt lat="42.914724" lon="-2.628629"><ele>529.357</ele><time>2018-04-22T08:47:04Z</time></trkpt><trkpt lat="42.914600" lon="-2.628430"><ele>531.645</ele><time>2018-04-22T08:47:26Z</time></trkpt><trkpt lat="42.914604" lon="-2.628177"><ele>535.847</ele><time>2018-04-22T08:47:38Z</time></trkpt><trkpt lat="42.914635" lon="-2.627919"><ele>537.311</ele><time>2018-04-22T08:47:51Z</time></trkpt><trkpt lat="42.914619" lon="-2.627672"><ele>534.908</ele><time>2018-04-22T08:48:04Z</time></trkpt><trkpt lat="42.914502" lon="-2.627473"><ele>533.346</ele><time>2018-04-22T08:48:18Z</time></trkpt><trkpt lat="42.914377" lon="-2.627282"><ele>532.168</ele><time>2018-04-22T08:48:31Z</time></trkpt><trkpt lat="42.914266" lon="-2.627087"><ele>534.546</ele><time>2018-04-22T08:48:43Z</time></trkpt><trkpt lat="42.914134" lon="-2.626898"><ele>530.679</ele><time>2018-04-22T08:48:58Z</time></trkpt><trkpt lat="42.914007" lon="-2.626716"><ele>528.645</ele><time>2018-04-22T08:49:11Z</time></trkpt><trkpt lat="42.913878" lon="-2.626508"><ele>529.254</ele><time>2018-04-22T08:49:25Z</time></trkpt><trkpt lat="42.913763" lon="-2.626315"><ele>528.774</ele><time>2018-04-22T08:49:39Z</time></trkpt><trkpt lat="42.913646" lon="-2.626123"><ele>527.284</ele><time>2018-04-22T08:49:53Z</time></trkpt><trkpt lat="42.913506" lon="-2.625954"><ele>524.335</ele><time>2018-04-22T08:50:06Z</time></trkpt><trkpt lat="42.913382" lon="-2.625747"><ele>525.986</ele><time>2018-04-22T08:50:18Z</time></trkpt><trkpt lat="42.913269" lon="-2.625549"><ele>525.214</ele><time>2018-04-22T08:50:30Z</time></trkpt><trkpt lat="42.913142" lon="-2.625355"><ele>523.908</ele><time>2018-04-22T08:50:42Z</time></trkpt><trkpt lat="42.913015" lon="-2.625163"><ele>521.945</ele><time>2018-04-22T08:50:54Z</time></trkpt><trkpt lat="42.912887" lon="-2.624974"><ele>522.497</ele><time>2018-04-22T08:51:06Z</time></trkpt><trkpt lat="42.912755" lon="-2.624771"><ele>522.885</ele><time>2018-04-22T08:51:18Z</time></trkpt><trkpt lat="42.912634" lon="-2.624589"><ele>521.378</ele><time>2018-04-22T08:51:29Z</time></trkpt><trkpt lat="42.912537" lon="-2.624381"><ele>519.284</ele><time>2018-04-22T08:51:41Z</time></trkpt><trkpt lat="42.912369" lon="-2.624499"><ele>519.753</ele><time>2018-04-22T08:52:19Z</time></trkpt><trkpt lat="42.912183" lon="-2.624598"><ele>521.343</ele><time>2018-04-22T08:52:29Z</time></trkpt><trkpt lat="42.912063" lon="-2.624785"><ele>512.423</ele><time>2018-04-22T08:52:43Z</time></trkpt><trkpt lat="42.911892" lon="-2.624878"><ele>513.354</ele><time>2018-04-22T08:52:52Z</time></trkpt><trkpt lat="42.911725" lon="-2.624981"><ele>515.356</ele><time>2018-04-22T08:53:08Z</time></trkpt><trkpt lat="42.911539" lon="-2.625064"><ele>515.911</ele><time>2018-04-22T08:53:15Z</time></trkpt><trkpt lat="42.911360" lon="-2.625130"><ele>516.408</ele><time>2018-04-22T08:53:24Z</time></trkpt><trkpt lat="42.911176" lon="-2.625173"><ele>522.467</ele><time>2018-04-22T08:53:37Z</time></trkpt><trkpt lat="42.911042" lon="-2.625339"><ele>518.739</ele><time>2018-04-22T08:53:49Z</time></trkpt><trkpt lat="42.910852" lon="-2.625370"><ele>519.967</ele><time>2018-04-22T08:53:58Z</time></trkpt><trkpt lat="42.910663" lon="-2.625453"><ele>515.040</ele><time>2018-04-22T08:54:07Z</time></trkpt><trkpt lat="42.910470" lon="-2.625440"><ele>514.336</ele><time>2018-04-22T08:54:15Z</time></trkpt><trkpt lat="42.910294" lon="-2.625381"><ele>512.585</ele><time>2018-04-22T08:54:23Z</time></trkpt><trkpt lat="42.910139" lon="-2.625518"><ele>513.285</ele><time>2018-04-22T08:54:32Z</time></trkpt><trkpt lat="42.909948" lon="-2.625529"><ele>515.775</ele><time>2018-04-22T08:54:41Z</time></trkpt><trkpt lat="42.909766" lon="-2.625525"><ele>514.652</ele><time>2018-04-22T08:54:48Z</time></trkpt><trkpt lat="42.909586" lon="-2.625569"><ele>512.953</ele><time>2018-04-22T08:54:55Z</time></trkpt><trkpt lat="42.909407" lon="-2.625540"><ele>512.608</ele><time>2018-04-22T08:55:03Z</time></trkpt><trkpt lat="42.909246" lon="-2.625682"><ele>515.908</ele><time>2018-04-22T08:55:14Z</time></trkpt><trkpt lat="42.909098" lon="-2.625840"><ele>516.967</ele><time>2018-04-22T08:55:24Z</time></trkpt><trkpt lat="42.908948" lon="-2.626011"><ele>514.499</ele><time>2018-04-22T08:55:38Z</time></trkpt><trkpt lat="42.908814" lon="-2.626176"><ele>514.637</ele><time>2018-04-22T08:55:47Z</time></trkpt><trkpt lat="42.908689" lon="-2.626358"><ele>514.850</ele><time>2018-04-22T08:56:01Z</time></trkpt><trkpt lat="42.908557" lon="-2.626540"><ele>513.956</ele><time>2018-04-22T08:56:08Z</time></trkpt><trkpt lat="42.908433" lon="-2.626718"><ele>512.075</ele><time>2018-04-22T08:56:15Z</time></trkpt><trkpt lat="42.908284" lon="-2.626912"><ele>513.755</ele><time>2018-04-22T08:56:23Z</time></trkpt><trkpt lat="42.908131" lon="-2.627045"><ele>513.755</ele><time>2018-04-22T08:56:30Z</time></trkpt><trkpt lat="42.907995" lon="-2.627223"><ele>516.618</ele><time>2018-04-22T08:56:43Z</time></trkpt><trkpt lat="42.907849" lon="-2.627371"><ele>520.898</ele><time>2018-04-22T08:56:55Z</time></trkpt><trkpt lat="42.907727" lon="-2.627554"><ele>516.417</ele><time>2018-04-22T08:57:17Z</time></trkpt><trkpt lat="42.907596" lon="-2.627730"><ele>523.508</ele><time>2018-04-22T08:57:31Z</time></trkpt><trkpt lat="42.907436" lon="-2.627857"><ele>519.143</ele><time>2018-04-22T08:57:41Z</time></trkpt><trkpt lat="42.907233" lon="-2.627889"><ele>522.285</ele><time>2018-04-22T08:57:48Z</time></trkpt><trkpt lat="42.907048" lon="-2.627869"><ele>522.193</ele><time>2018-04-22T08:57:58Z</time></trkpt><trkpt lat="42.906865" lon="-2.627885"><ele>522.676</ele><time>2018-04-22T08:58:11Z</time></trkpt><trkpt lat="42.906685" lon="-2.627864"><ele>517.922</ele><time>2018-04-22T08:58:26Z</time></trkpt><trkpt lat="42.906504" lon="-2.627836"><ele>520.721</ele><time>2018-04-22T08:58:40Z</time></trkpt><trkpt lat="42.906432" lon="-2.627610"><ele>516.951</ele><time>2018-04-22T08:59:41Z</time></trkpt><trkpt lat="42.906578" lon="-2.627431"><ele>520.091</ele><time>2018-04-22T08:59:53Z</time></trkpt><trkpt lat="42.906700" lon="-2.627233"><ele>521.967</ele><time>2018-04-22T09:00:05Z</time></trkpt><trkpt lat="42.906819" lon="-2.627036"><ele>523.281</ele><time>2018-04-22T09:00:17Z</time></trkpt><trkpt lat="42.906955" lon="-2.626856"><ele>524.919</ele><time>2018-04-22T09:00:28Z</time></trkpt><trkpt lat="42.907115" lon="-2.626713"><ele>526.008</ele><time>2018-04-22T09:00:39Z</time></trkpt><trkpt lat="42.907201" lon="-2.626490"><ele>524.588</ele><time>2018-04-22T09:00:51Z</time></trkpt><trkpt lat="42.907187" lon="-2.626235"><ele>518.360</ele><time>2018-04-22T09:01:02Z</time></trkpt><trkpt lat="42.907172" lon="-2.625969"><ele>518.728</ele><time>2018-04-22T09:01:50Z</time></trkpt><trkpt lat="42.907148" lon="-2.625696"><ele>520.311</ele><time>2018-04-22T09:01:59Z</time></trkpt><trkpt lat="42.907063" lon="-2.625465"><ele>524.417</ele><time>2018-04-22T09:02:05Z</time></trkpt><trkpt lat="42.906986" lon="-2.625228"><ele>524.846</ele><time>2018-04-22T09:02:12Z</time></trkpt><trkpt lat="42.906960" lon="-2.624981"><ele>528.176</ele><time>2018-04-22T09:02:19Z</time></trkpt><trkpt lat="42.906973" lon="-2.624734"><ele>528.886</ele><time>2018-04-22T09:02:26Z</time></trkpt><trkpt lat="42.907006" lon="-2.624483"><ele>531.125</ele><time>2018-04-22T09:02:36Z</time></trkpt><trkpt lat="42.907018" lon="-2.624220"><ele>532.126</ele><time>2018-04-22T09:02:50Z</time></trkpt><trkpt lat="42.907035" lon="-2.623961"><ele>534.608</ele><time>2018-04-22T09:03:03Z</time></trkpt><trkpt lat="42.907111" lon="-2.623718"><ele>535.508</ele><time>2018-04-22T09:03:17Z</time></trkpt><trkpt lat="42.907180" lon="-2.623481"><ele>536.114</ele><time>2018-04-22T09:03:30Z</time></trkpt><trkpt lat="42.907239" lon="-2.623240"><ele>538.866</ele><time>2018-04-22T09:03:42Z</time></trkpt><trkpt lat="42.907285" lon="-2.622995"><ele>535.314</ele><time>2018-04-22T09:04:43Z</time></trkpt><trkpt lat="42.907402" lon="-2.622797"><ele>534.757</ele><time>2018-04-22T09:04:55Z</time></trkpt><trkpt lat="42.907505" lon="-2.622573"><ele>535.913</ele><time>2018-04-22T09:05:07Z</time></trkpt><trkpt lat="42.907545" lon="-2.622331"><ele>532.822</ele><time>2018-04-22T09:05:19Z</time></trkpt><trkpt lat="42.907559" lon="-2.622084"><ele>531.492</ele><time>2018-04-22T09:05:33Z</time></trkpt><trkpt lat="42.907657" lon="-2.621876"><ele>533.532</ele><time>2018-04-22T09:05:45Z</time></trkpt><trkpt lat="42.907749" lon="-2.621645"><ele>535.349</ele><time>2018-04-22T09:05:57Z</time></trkpt><trkpt lat="42.907818" lon="-2.621412"><ele>536.902</ele><time>2018-04-22T09:06:09Z</time></trkpt><trkpt lat="42.907913" lon="-2.621199"><ele>538.422</ele><time>2018-04-22T09:06:21Z</time></trkpt><trkpt lat="42.908009" lon="-2.620986"><ele>539.108</ele><time>2018-04-22T09:06:34Z</time></trkpt><trkpt lat="42.908006" lon="-2.620724"><ele>537.716</ele><time>2018-04-22T09:06:47Z</time></trkpt><trkpt lat="42.907896" lon="-2.620504"><ele>538.248</ele><time>2018-04-22T09:06:59Z</time></trkpt><trkpt lat="42.907805" lon="-2.620272"><ele>539.916</ele><time>2018-04-22T09:07:10Z</time></trkpt><trkpt lat="42.907748" lon="-2.620020"><ele>537.329</ele><time>2018-04-22T09:07:24Z</time></trkpt><trkpt lat="42.907615" lon="-2.619821"><ele>538.975</ele><time>2018-04-22T09:07:36Z</time></trkpt><trkpt lat="42.907541" lon="-2.619584"><ele>537.664</ele><time>2018-04-22T09:07:48Z</time></trkpt><trkpt lat="42.907543" lon="-2.619328"><ele>537.414</ele><time>2018-04-22T09:08:00Z</time></trkpt><trkpt lat="42.907602" lon="-2.619091"><ele>538.514</ele><time>2018-04-22T09:08:12Z</time></trkpt><trkpt lat="42.907658" lon="-2.618838"><ele>539.544</ele><time>2018-04-22T09:08:24Z</time></trkpt><trkpt lat="42.907716" lon="-2.618602"><ele>539.405</ele><time>2018-04-22T09:08:35Z</time></trkpt><trkpt lat="42.907754" lon="-2.618350"><ele>540.915</ele><time>2018-04-22T09:08:47Z</time></trkpt><trkpt lat="42.907844" lon="-2.618120"><ele>542.808</ele><time>2018-04-22T09:08:59Z</time></trkpt><trkpt lat="42.907944" lon="-2.617910"><ele>543.956</ele><time>2018-04-22T09:09:11Z</time></trkpt><trkpt lat="42.908058" lon="-2.617718"><ele>544.678</ele><time>2018-04-22T09:09:23Z</time></trkpt><trkpt lat="42.908172" lon="-2.617517"><ele>545.356</ele><time>2018-04-22T09:09:35Z</time></trkpt><trkpt lat="42.908276" lon="-2.617309"><ele>546.619</ele><time>2018-04-22T09:09:48Z</time></trkpt><trkpt lat="42.908092" lon="-2.617363"><ele>549.555</ele><time>2018-04-22T09:10:03Z</time></trkpt><trkpt lat="42.907908" lon="-2.617442"><ele>553.254</ele><time>2018-04-22T09:10:18Z</time></trkpt><trkpt lat="42.907720" lon="-2.617494"><ele>554.084</ele><time>2018-04-22T09:10:30Z</time></trkpt><trkpt lat="42.907814" lon="-2.617265"><ele>557.724</ele><time>2018-04-22T09:10:47Z</time></trkpt><trkpt lat="42.907908" lon="-2.617038"><ele>556.951</ele><time>2018-04-22T09:10:59Z</time></trkpt><trkpt lat="42.907948" lon="-2.616797"><ele>557.601</ele><time>2018-04-22T09:11:10Z</time></trkpt><trkpt lat="42.907971" lon="-2.616546"><ele>555.911</ele><time>2018-04-22T09:11:22Z</time></trkpt><trkpt lat="42.908046" lon="-2.616300"><ele>554.708</ele><time>2018-04-22T09:11:35Z</time></trkpt><trkpt lat="42.908134" lon="-2.616075"><ele>554.417</ele><time>2018-04-22T09:11:46Z</time></trkpt><trkpt lat="42.908171" lon="-2.615828"><ele>556.119</ele><time>2018-04-22T09:11:57Z</time></trkpt><trkpt lat="42.908178" lon="-2.615569"><ele>557.537</ele><time>2018-04-22T09:12:08Z</time></trkpt><trkpt lat="42.908162" lon="-2.615309"><ele>556.820</ele><time>2018-04-22T09:12:20Z</time></trkpt><trkpt lat="42.908299" lon="-2.615132"><ele>560.796</ele><time>2018-04-22T09:12:31Z</time></trkpt><trkpt lat="42.908491" lon="-2.615154"><ele>559.095</ele><time>2018-04-22T09:12:43Z</time></trkpt><trkpt lat="42.908675" lon="-2.615241"><ele>556.785</ele><time>2018-04-22T09:12:53Z</time></trkpt><trkpt lat="42.908827" lon="-2.615417"><ele>555.085</ele><time>2018-04-22T09:13:03Z</time></trkpt><trkpt lat="42.909010" lon="-2.615480"><ele>550.433</ele><time>2018-04-22T09:13:13Z</time></trkpt><trkpt lat="42.909170" lon="-2.615357"><ele>549.723</ele><time>2018-04-22T09:13:24Z</time></trkpt><trkpt lat="42.909250" lon="-2.615131"><ele>548.815</ele><time>2018-04-22T09:13:35Z</time></trkpt><trkpt lat="42.909305" lon="-2.614883"><ele>547.608</ele><time>2018-04-22T09:13:47Z</time></trkpt><trkpt lat="42.909444" lon="-2.614697"><ele>549.125</ele><time>2018-04-22T09:13:58Z</time></trkpt><trkpt lat="42.909566" lon="-2.614511"><ele>551.637</ele><time>2018-04-22T09:14:09Z</time></trkpt><trkpt lat="42.909641" lon="-2.614286"><ele>552.385</ele><time>2018-04-22T09:14:20Z</time></trkpt><trkpt lat="42.909709" lon="-2.614039"><ele>552.728</ele><time>2018-04-22T09:14:32Z</time></trkpt><trkpt lat="42.909735" lon="-2.613789"><ele>554.264</ele><time>2018-04-22T09:14:50Z</time></trkpt><trkpt lat="42.909884" lon="-2.613629"><ele>552.943</ele><time>2018-04-22T09:15:04Z</time></trkpt><trkpt lat="42.910022" lon="-2.613455"><ele>553.333</ele><time>2018-04-22T09:15:12Z</time></trkpt><trkpt lat="42.910163" lon="-2.613296"><ele>560.073</ele><time>2018-04-22T09:15:20Z</time></trkpt><trkpt lat="42.910321" lon="-2.613167"><ele>560.167</ele><time>2018-04-22T09:15:29Z</time></trkpt><trkpt lat="42.910479" lon="-2.613050"><ele>558.981</ele><time>2018-04-22T09:15:45Z</time></trkpt><trkpt lat="42.910653" lon="-2.612951"><ele>555.319</ele><time>2018-04-22T09:15:57Z</time></trkpt><trkpt lat="42.910817" lon="-2.612799"><ele>553.108</ele><time>2018-04-22T09:16:09Z</time></trkpt><trkpt lat="42.910939" lon="-2.612611"><ele>552.788</ele><time>2018-04-22T09:16:21Z</time></trkpt><trkpt lat="42.911077" lon="-2.612429"><ele>555.130</ele><time>2018-04-22T09:16:35Z</time></trkpt><trkpt lat="42.911212" lon="-2.612258"><ele>553.698</ele><time>2018-04-22T09:16:51Z</time></trkpt><trkpt lat="42.911359" lon="-2.612087"><ele>554.571</ele><time>2018-04-22T09:17:01Z</time></trkpt><trkpt lat="42.911459" lon="-2.611878"><ele>556.267</ele><time>2018-04-22T09:17:10Z</time></trkpt><trkpt lat="42.911536" lon="-2.611650"><ele>557.746</ele><time>2018-04-22T09:17:20Z</time></trkpt><trkpt lat="42.911588" lon="-2.611414"><ele>558.686</ele><time>2018-04-22T09:17:31Z</time></trkpt><trkpt lat="42.911627" lon="-2.611171"><ele>559.026</ele><time>2018-04-22T09:17:42Z</time></trkpt><trkpt lat="42.911663" lon="-2.610919"><ele>559.969</ele><time>2018-04-22T09:17:53Z</time></trkpt><trkpt lat="42.911655" lon="-2.610663"><ele>559.004</ele><time>2018-04-22T09:18:04Z</time></trkpt><trkpt lat="42.911678" lon="-2.610415"><ele>556.424</ele><time>2018-04-22T09:18:16Z</time></trkpt><trkpt lat="42.911721" lon="-2.610167"><ele>556.108</ele><time>2018-04-22T09:18:28Z</time></trkpt><trkpt lat="42.911842" lon="-2.609979"><ele>555.988</ele><time>2018-04-22T09:18:39Z</time></trkpt><trkpt lat="42.911972" lon="-2.609790"><ele>555.050</ele><time>2018-04-22T09:18:50Z</time></trkpt><trkpt lat="42.912090" lon="-2.609578"><ele>552.348</ele><time>2018-04-22T09:19:02Z</time></trkpt><trkpt lat="42.912124" lon="-2.609329"><ele>551.281</ele><time>2018-04-22T09:19:14Z</time></trkpt><trkpt lat="42.912098" lon="-2.609074"><ele>553.457</ele><time>2018-04-22T09:19:25Z</time></trkpt><trkpt lat="42.911996" lon="-2.608872"><ele>551.166</ele><time>2018-04-22T09:19:36Z</time></trkpt><trkpt lat="42.912026" lon="-2.608621"><ele>548.036</ele><time>2018-04-22T09:19:48Z</time></trkpt><trkpt lat="42.912179" lon="-2.608464"><ele>549.526</ele><time>2018-04-22T09:20:00Z</time></trkpt><trkpt lat="42.912304" lon="-2.608277"><ele>548.624</ele><time>2018-04-22T09:20:13Z</time></trkpt><trkpt lat="42.912230" lon="-2.608036"><ele>550.904</ele><time>2018-04-22T09:20:27Z</time></trkpt><trkpt lat="42.912172" lon="-2.607795"><ele>551.614</ele><time>2018-04-22T09:20:38Z</time></trkpt><trkpt lat="42.912095" lon="-2.607557"><ele>550.608</ele><time>2018-04-22T09:20:50Z</time></trkpt><trkpt lat="42.912006" lon="-2.607334"><ele>548.894</ele><time>2018-04-22T09:21:02Z</time></trkpt><trkpt lat="42.911908" lon="-2.607125"><ele>550.436</ele><time>2018-04-22T09:21:14Z</time></trkpt><trkpt lat="42.911797" lon="-2.606908"><ele>547.764</ele><time>2018-04-22T09:21:26Z</time></trkpt><trkpt lat="42.911695" lon="-2.606696"><ele>550.487</ele><time>2018-04-22T09:21:37Z</time></trkpt><trkpt lat="42.911603" lon="-2.606482"><ele>549.983</ele><time>2018-04-22T09:21:48Z</time></trkpt><trkpt lat="42.911478" lon="-2.606285"><ele>550.012</ele><time>2018-04-22T09:22:00Z</time></trkpt><trkpt lat="42.911369" lon="-2.606089"><ele>550.822</ele><time>2018-04-22T09:22:24Z</time></trkpt><trkpt lat="42.911271" lon="-2.605878"><ele>550.372</ele><time>2018-04-22T09:22:35Z</time></trkpt><trkpt lat="42.911135" lon="-2.605714"><ele>552.799</ele><time>2018-04-22T09:22:46Z</time></trkpt><trkpt lat="42.911004" lon="-2.605530"><ele>553.507</ele><time>2018-04-22T09:22:56Z</time></trkpt><trkpt lat="42.910877" lon="-2.605334"><ele>555.527</ele><time>2018-04-22T09:23:09Z</time></trkpt><trkpt lat="42.910718" lon="-2.605180"><ele>555.908</ele><time>2018-04-22T09:23:22Z</time></trkpt><trkpt lat="42.910578" lon="-2.605004"><ele>557.321</ele><time>2018-04-22T09:23:34Z</time></trkpt><trkpt lat="42.910480" lon="-2.604793"><ele>563.553</ele><time>2018-04-22T09:23:53Z</time></trkpt><trkpt lat="42.910338" lon="-2.604633"><ele>562.151</ele><time>2018-04-22T09:24:07Z</time></trkpt><trkpt lat="42.910192" lon="-2.604478"><ele>564.224</ele><time>2018-04-22T09:24:44Z</time></trkpt><trkpt lat="42.910081" lon="-2.604263"><ele>563.320</ele><time>2018-04-22T09:25:15Z</time></trkpt><trkpt lat="42.909954" lon="-2.604072"><ele>564.169</ele><time>2018-04-22T09:25:27Z</time></trkpt><trkpt lat="42.909843" lon="-2.603859"><ele>562.429</ele><time>2018-04-22T09:25:39Z</time></trkpt><trkpt lat="42.909713" lon="-2.603669"><ele>560.989</ele><time>2018-04-22T09:26:00Z</time></trkpt><trkpt lat="42.909638" lon="-2.603428"><ele>560.246</ele><time>2018-04-22T09:26:11Z</time></trkpt><trkpt lat="42.909639" lon="-2.603177"><ele>560.688</ele><time>2018-04-22T09:26:22Z</time></trkpt><trkpt lat="42.909670" lon="-2.602928"><ele>562.916</ele><time>2018-04-22T09:26:31Z</time></trkpt><trkpt lat="42.909642" lon="-2.602681"><ele>564.808</ele><time>2018-04-22T09:26:43Z</time></trkpt><trkpt lat="42.909600" lon="-2.602427"><ele>569.566</ele><time>2018-04-22T09:26:57Z</time></trkpt><trkpt lat="42.909536" lon="-2.602196"><ele>571.458</ele><time>2018-04-22T09:27:10Z</time></trkpt><trkpt lat="42.909452" lon="-2.601962"><ele>571.266</ele><time>2018-04-22T09:27:23Z</time></trkpt><trkpt lat="42.909411" lon="-2.601722"><ele>569.739</ele><time>2018-04-22T09:27:39Z</time></trkpt><trkpt lat="42.909429" lon="-2.601462"><ele>567.815</ele><time>2018-04-22T09:27:56Z</time></trkpt><trkpt lat="42.909379" lon="-2.601220"><ele>568.574</ele><time>2018-04-22T09:28:12Z</time></trkpt><trkpt lat="42.909312" lon="-2.600980"><ele>574.814</ele><time>2018-04-22T09:28:28Z</time></trkpt><trkpt lat="42.909352" lon="-2.600727"><ele>577.824</ele><time>2018-04-22T09:28:47Z</time></trkpt><trkpt lat="42.909367" lon="-2.600468"><ele>581.952</ele><time>2018-04-22T09:29:06Z</time></trkpt><trkpt lat="42.909312" lon="-2.600217"><ele>585.153</ele><time>2018-04-22T09:29:22Z</time></trkpt><trkpt lat="42.909194" lon="-2.600017"><ele>587.608</ele><time>2018-04-22T09:29:36Z</time></trkpt><trkpt lat="42.909023" lon="-2.599905"><ele>589.908</ele><time>2018-04-22T09:29:51Z</time></trkpt><trkpt lat="42.908861" lon="-2.599779"><ele>594.037</ele><time>2018-04-22T09:30:05Z</time></trkpt><trkpt lat="42.908678" lon="-2.599726"><ele>600.199</ele><time>2018-04-22T09:30:20Z</time></trkpt><trkpt lat="42.908498" lon="-2.599696"><ele>601.857</ele><time>2018-04-22T09:30:37Z</time></trkpt><trkpt lat="42.908368" lon="-2.599505"><ele>600.710</ele><time>2018-04-22T09:30:52Z</time></trkpt><trkpt lat="42.908246" lon="-2.599305"><ele>602.866</ele><time>2018-04-22T09:31:05Z</time></trkpt><trkpt lat="42.908112" lon="-2.599136"><ele>608.275</ele><time>2018-04-22T09:31:17Z</time></trkpt><trkpt lat="42.907969" lon="-2.598960"><ele>605.645</ele><time>2018-04-22T09:31:29Z</time></trkpt><trkpt lat="42.907866" lon="-2.598742"><ele>606.295</ele><time>2018-04-22T09:31:45Z</time></trkpt><trkpt lat="42.907780" lon="-2.598523"><ele>605.146</ele><time>2018-04-22T09:31:58Z</time></trkpt><trkpt lat="42.907658" lon="-2.598325"><ele>611.388</ele><time>2018-04-22T09:32:11Z</time></trkpt><trkpt lat="42.907530" lon="-2.598139"><ele>613.116</ele><time>2018-04-22T09:32:24Z</time></trkpt><trkpt lat="42.907402" lon="-2.597952"><ele>614.508</ele><time>2018-04-22T09:32:37Z</time></trkpt><trkpt lat="42.907253" lon="-2.597802"><ele>613.866</ele><time>2018-04-22T09:32:50Z</time></trkpt><trkpt lat="42.907088" lon="-2.597672"><ele>614.188</ele><time>2018-04-22T09:33:02Z</time></trkpt><trkpt lat="42.906905" lon="-2.597644"><ele>612.726</ele><time>2018-04-22T09:33:13Z</time></trkpt><trkpt lat="42.906731" lon="-2.597526"><ele>613.659</ele><time>2018-04-22T09:33:24Z</time></trkpt><trkpt lat="42.906642" lon="-2.597288"><ele>611.375</ele><time>2018-04-22T09:33:36Z</time></trkpt><trkpt lat="42.906651" lon="-2.597029"><ele>609.974</ele><time>2018-04-22T09:33:48Z</time></trkpt><trkpt lat="42.906694" lon="-2.596784"><ele>607.884</ele><time>2018-04-22T09:34:00Z</time></trkpt><trkpt lat="42.906711" lon="-2.596522"><ele>605.944</ele><time>2018-04-22T09:34:12Z</time></trkpt><trkpt lat="42.906702" lon="-2.596271"><ele>603.881</ele><time>2018-04-22T09:34:23Z</time></trkpt><trkpt lat="42.906656" lon="-2.596021"><ele>605.761</ele><time>2018-04-22T09:34:34Z</time></trkpt><trkpt lat="42.906591" lon="-2.595776"><ele>602.517</ele><time>2018-04-22T09:34:46Z</time></trkpt><trkpt lat="42.906531" lon="-2.595526"><ele>599.408</ele><time>2018-04-22T09:34:58Z</time></trkpt><trkpt lat="42.906479" lon="-2.595278"><ele>599.830</ele><time>2018-04-22T09:35:09Z</time></trkpt><trkpt lat="42.906439" lon="-2.595020"><ele>598.512</ele><time>2018-04-22T09:35:21Z</time></trkpt><trkpt lat="42.906475" lon="-2.594773"><ele>596.060</ele><time>2018-04-22T09:35:33Z</time></trkpt><trkpt lat="42.906474" lon="-2.594524"><ele>592.613</ele><time>2018-04-22T09:35:42Z</time></trkpt><trkpt lat="42.906376" lon="-2.594316"><ele>591.269</ele><time>2018-04-22T09:35:50Z</time></trkpt><trkpt lat="42.906277" lon="-2.594087"><ele>589.948</ele><time>2018-04-22T09:36:01Z</time></trkpt><trkpt lat="42.906159" lon="-2.593891"><ele>587.338</ele><time>2018-04-22T09:36:12Z</time></trkpt><trkpt lat="42.906021" lon="-2.593723"><ele>586.098</ele><time>2018-04-22T09:36:24Z</time></trkpt><trkpt lat="42.905874" lon="-2.593558"><ele>586.444</ele><time>2018-04-22T09:36:37Z</time></trkpt><trkpt lat="42.905752" lon="-2.593376"><ele>585.005</ele><time>2018-04-22T09:36:50Z</time></trkpt><trkpt lat="42.905663" lon="-2.593145"><ele>585.115</ele><time>2018-04-22T09:37:02Z</time></trkpt><trkpt lat="42.905648" lon="-2.592888"><ele>582.108</ele><time>2018-04-22T09:37:14Z</time></trkpt><trkpt lat="42.905616" lon="-2.592628"><ele>581.196</ele><time>2018-04-22T09:37:26Z</time></trkpt><trkpt lat="42.905578" lon="-2.592376"><ele>580.538</ele><time>2018-04-22T09:37:38Z</time></trkpt><trkpt lat="42.905540" lon="-2.592130"><ele>581.116</ele><time>2018-04-22T09:37:50Z</time></trkpt><trkpt lat="42.905486" lon="-2.591886"><ele>581.069</ele><time>2018-04-22T09:38:03Z</time></trkpt><trkpt lat="42.905336" lon="-2.591723"><ele>580.345</ele><time>2018-04-22T09:38:15Z</time></trkpt><trkpt lat="42.905152" lon="-2.591733"><ele>577.324</ele><time>2018-04-22T09:38:27Z</time></trkpt><trkpt lat="42.905103" lon="-2.591489"><ele>574.524</ele><time>2018-04-22T09:38:42Z</time></trkpt><trkpt lat="42.905142" lon="-2.591234"><ele>575.654</ele><time>2018-04-22T09:38:54Z</time></trkpt><trkpt lat="42.905146" lon="-2.590986"><ele>576.218</ele><time>2018-04-22T09:39:04Z</time></trkpt><trkpt lat="42.905140" lon="-2.590721"><ele>577.598</ele><time>2018-04-22T09:39:15Z</time></trkpt><trkpt lat="42.905131" lon="-2.590472"><ele>576.917</ele><time>2018-04-22T09:39:26Z</time></trkpt><trkpt lat="42.905118" lon="-2.590221"><ele>576.308</ele><time>2018-04-22T09:39:37Z</time></trkpt><trkpt lat="42.905116" lon="-2.589962"><ele>574.493</ele><time>2018-04-22T09:39:49Z</time></trkpt><trkpt lat="42.905114" lon="-2.589704"><ele>573.585</ele><time>2018-04-22T09:40:01Z</time></trkpt><trkpt lat="42.905098" lon="-2.589460"><ele>570.363</ele><time>2018-04-22T09:40:12Z</time></trkpt><trkpt lat="42.905074" lon="-2.589205"><ele>566.776</ele><time>2018-04-22T09:40:24Z</time></trkpt><trkpt lat="42.905043" lon="-2.588940"><ele>567.672</ele><time>2018-04-22T09:40:35Z</time></trkpt><trkpt lat="42.905015" lon="-2.588687"><ele>567.491</ele><time>2018-04-22T09:40:46Z</time></trkpt><trkpt lat="42.904971" lon="-2.588439"><ele>568.321</ele><time>2018-04-22T09:40:58Z</time></trkpt><trkpt lat="42.904913" lon="-2.588197"><ele>572.511</ele><time>2018-04-22T09:41:10Z</time></trkpt><trkpt lat="42.904866" lon="-2.587953"><ele>572.446</ele><time>2018-04-22T09:41:21Z</time></trkpt><trkpt lat="42.904872" lon="-2.587703"><ele>572.488</ele><time>2018-04-22T09:41:32Z</time></trkpt><trkpt lat="42.904878" lon="-2.587443"><ele>574.916</ele><time>2018-04-22T09:41:44Z</time></trkpt><trkpt lat="42.904866" lon="-2.587192"><ele>576.008</ele><time>2018-04-22T09:41:55Z</time></trkpt><trkpt lat="42.904818" lon="-2.586946"><ele>577.486</ele><time>2018-04-22T09:42:06Z</time></trkpt><trkpt lat="42.904749" lon="-2.586694"><ele>577.458</ele><time>2018-04-22T09:42:17Z</time></trkpt><trkpt lat="42.904688" lon="-2.586458"><ele>578.546</ele><time>2018-04-22T09:42:29Z</time></trkpt><trkpt lat="42.904618" lon="-2.586227"><ele>578.379</ele><time>2018-04-22T09:42:41Z</time></trkpt><trkpt lat="42.904581" lon="-2.585972"><ele>578.185</ele><time>2018-04-22T09:42:53Z</time></trkpt><trkpt lat="42.904598" lon="-2.585720"><ele>578.434</ele><time>2018-04-22T09:43:05Z</time></trkpt><trkpt lat="42.904647" lon="-2.585463"><ele>580.164</ele><time>2018-04-22T09:43:18Z</time></trkpt><trkpt lat="42.904606" lon="-2.585213"><ele>579.424</ele><time>2018-04-22T09:43:33Z</time></trkpt><trkpt lat="42.904522" lon="-2.584995"><ele>577.878</ele><time>2018-04-22T09:43:44Z</time></trkpt><trkpt lat="42.904464" lon="-2.584755"><ele>575.833</ele><time>2018-04-22T09:43:57Z</time></trkpt><trkpt lat="42.904419" lon="-2.584517"><ele>579.826</ele><time>2018-04-22T09:45:45Z</time></trkpt><trkpt lat="42.904384" lon="-2.584257"><ele>577.508</ele><time>2018-04-22T09:45:59Z</time></trkpt><trkpt lat="42.904325" lon="-2.584014"><ele>575.869</ele><time>2018-04-22T09:47:24Z</time></trkpt><trkpt lat="42.904242" lon="-2.583774"><ele>577.961</ele><time>2018-04-22T09:47:36Z</time></trkpt><trkpt lat="42.904138" lon="-2.583547"><ele>579.379</ele><time>2018-04-22T09:47:49Z</time></trkpt><trkpt lat="42.904039" lon="-2.583327"><ele>581.772</ele><time>2018-04-22T09:48:00Z</time></trkpt><trkpt lat="42.904020" lon="-2.583078"><ele>585.988</ele><time>2018-04-22T09:48:10Z</time></trkpt><trkpt lat="42.904002" lon="-2.582810"><ele>586.387</ele><time>2018-04-22T09:48:21Z</time></trkpt><trkpt lat="42.903958" lon="-2.582554"><ele>585.497</ele><time>2018-04-22T09:48:32Z</time></trkpt><trkpt lat="42.903891" lon="-2.582323"><ele>583.617</ele><time>2018-04-22T09:48:43Z</time></trkpt><trkpt lat="42.903849" lon="-2.582067"><ele>590.321</ele><time>2018-04-22T09:48:53Z</time></trkpt><trkpt lat="42.903858" lon="-2.581800"><ele>595.141</ele><time>2018-04-22T09:49:03Z</time></trkpt><trkpt lat="42.903872" lon="-2.581548"><ele>593.705</ele><time>2018-04-22T09:49:24Z</time></trkpt><trkpt lat="42.903740" lon="-2.581368"><ele>593.008</ele><time>2018-04-22T09:49:36Z</time></trkpt><trkpt lat="42.903625" lon="-2.581171"><ele>595.474</ele><time>2018-04-22T09:49:46Z</time></trkpt><trkpt lat="42.903537" lon="-2.580948"><ele>595.056</ele><time>2018-04-22T09:49:56Z</time></trkpt><trkpt lat="42.903416" lon="-2.580761"><ele>590.944</ele><time>2018-04-22T09:50:07Z</time></trkpt><trkpt lat="42.903321" lon="-2.580540"><ele>589.427</ele><time>2018-04-22T09:50:22Z</time></trkpt><trkpt lat="42.903265" lon="-2.580289"><ele>585.163</ele><time>2018-04-22T09:50:32Z</time></trkpt><trkpt lat="42.903168" lon="-2.580058"><ele>583.662</ele><time>2018-04-22T09:50:41Z</time></trkpt><trkpt lat="42.903092" lon="-2.579822"><ele>587.182</ele><time>2018-04-22T09:50:54Z</time></trkpt><trkpt lat="42.902988" lon="-2.579618"><ele>587.372</ele><time>2018-04-22T09:51:08Z</time></trkpt><trkpt lat="42.902822" lon="-2.579490"><ele>585.719</ele><time>2018-04-22T09:51:19Z</time></trkpt><trkpt lat="42.902682" lon="-2.579329"><ele>584.809</ele><time>2018-04-22T09:51:25Z</time></trkpt><trkpt lat="42.902519" lon="-2.579190"><ele>580.519</ele><time>2018-04-22T09:51:47Z</time></trkpt><trkpt lat="42.902334" lon="-2.579098"><ele>580.308</ele><time>2018-04-22T09:51:59Z</time></trkpt><trkpt lat="42.902153" lon="-2.579065"><ele>576.343</ele><time>2018-04-22T09:52:10Z</time></trkpt><trkpt lat="42.901961" lon="-2.579103"><ele>575.245</ele><time>2018-04-22T09:52:22Z</time></trkpt><trkpt lat="42.901816" lon="-2.578941"><ele>572.913</ele><time>2018-04-22T09:52:35Z</time></trkpt><trkpt lat="42.901651" lon="-2.578796"><ele>568.926</ele><time>2018-04-22T09:52:49Z</time></trkpt><trkpt lat="42.901533" lon="-2.578585"><ele>571.332</ele><time>2018-04-22T09:53:00Z</time></trkpt><trkpt lat="42.901483" lon="-2.578330"><ele>574.031</ele><time>2018-04-22T09:53:12Z</time></trkpt><trkpt lat="42.901439" lon="-2.578078"><ele>575.571</ele><time>2018-04-22T09:53:24Z</time></trkpt><trkpt lat="42.901404" lon="-2.577817"><ele>576.671</ele><time>2018-04-22T09:53:37Z</time></trkpt><trkpt lat="42.901355" lon="-2.577580"><ele>577.636</ele><time>2018-04-22T09:53:48Z</time></trkpt><trkpt lat="42.901306" lon="-2.577324"><ele>577.117</ele><time>2018-04-22T09:54:00Z</time></trkpt><trkpt lat="42.901241" lon="-2.577086"><ele>578.418</ele><time>2018-04-22T09:54:11Z</time></trkpt><trkpt lat="42.901185" lon="-2.576847"><ele>579.908</ele><time>2018-04-22T09:54:22Z</time></trkpt><trkpt lat="42.901146" lon="-2.576586"><ele>578.365</ele><time>2018-04-22T09:54:34Z</time></trkpt><trkpt lat="42.901093" lon="-2.576321"><ele>575.147</ele><time>2018-04-22T09:54:43Z</time></trkpt><trkpt lat="42.900996" lon="-2.576113"><ele>574.355</ele><time>2018-04-22T09:54:52Z</time></trkpt><trkpt lat="42.900880" lon="-2.575903"><ele>571.438</ele><time>2018-04-22T09:55:02Z</time></trkpt><trkpt lat="42.900808" lon="-2.575665"><ele>569.554</ele><time>2018-04-22T09:55:13Z</time></trkpt><trkpt lat="42.900762" lon="-2.575416"><ele>568.753</ele><time>2018-04-22T09:55:25Z</time></trkpt><trkpt lat="42.900712" lon="-2.575176"><ele>568.213</ele><time>2018-04-22T09:55:36Z</time></trkpt><trkpt lat="42.900662" lon="-2.574924"><ele>565.933</ele><time>2018-04-22T09:55:48Z</time></trkpt><trkpt lat="42.900608" lon="-2.574684"><ele>563.574</ele><time>2018-04-22T09:55:59Z</time></trkpt><trkpt lat="42.900560" lon="-2.574433"><ele>562.256</ele><time>2018-04-22T09:56:10Z</time></trkpt><trkpt lat="42.900497" lon="-2.574191"><ele>558.821</ele><time>2018-04-22T09:56:21Z</time></trkpt><trkpt lat="42.900425" lon="-2.573947"><ele>560.008</ele><time>2018-04-22T09:56:32Z</time></trkpt><trkpt lat="42.900359" lon="-2.573715"><ele>559.079</ele><time>2018-04-22T09:56:44Z</time></trkpt><trkpt lat="42.900319" lon="-2.573460"><ele>559.111</ele><time>2018-04-22T09:56:56Z</time></trkpt><trkpt lat="42.900265" lon="-2.573223"><ele>558.919</ele><time>2018-04-22T09:57:09Z</time></trkpt><trkpt lat="42.900233" lon="-2.572972"><ele>556.872</ele><time>2018-04-22T09:57:23Z</time></trkpt><trkpt lat="42.900156" lon="-2.572749"><ele>563.088</ele><time>2018-04-22T09:58:27Z</time></trkpt><trkpt lat="42.899965" lon="-2.572714"><ele>561.597</ele><time>2018-04-22T09:58:42Z</time></trkpt><trkpt lat="42.899780" lon="-2.572659"><ele>560.767</ele><time>2018-04-22T09:58:56Z</time></trkpt><trkpt lat="42.899687" lon="-2.572446"><ele>561.097</ele><time>2018-04-22T09:59:08Z</time></trkpt><trkpt lat="42.899598" lon="-2.572230"><ele>563.784</ele><time>2018-04-22T09:59:19Z</time></trkpt><trkpt lat="42.899450" lon="-2.572062"><ele>565.207</ele><time>2018-04-22T09:59:31Z</time></trkpt><trkpt lat="42.899277" lon="-2.571945"><ele>563.317</ele><time>2018-04-22T09:59:43Z</time></trkpt><trkpt lat="42.899104" lon="-2.571857"><ele>563.408</ele><time>2018-04-22T09:59:54Z</time></trkpt><trkpt lat="42.898936" lon="-2.571727"><ele>565.220</ele><time>2018-04-22T10:00:06Z</time></trkpt><trkpt lat="42.898800" lon="-2.571557"><ele>563.182</ele><time>2018-04-22T10:00:18Z</time></trkpt><trkpt lat="42.898710" lon="-2.571340"><ele>563.020</ele><time>2018-04-22T10:00:29Z</time></trkpt><trkpt lat="42.898629" lon="-2.571107"><ele>562.423</ele><time>2018-04-22T10:00:40Z</time></trkpt><trkpt lat="42.898529" lon="-2.570879"><ele>561.019</ele><time>2018-04-22T10:00:52Z</time></trkpt><trkpt lat="42.898427" lon="-2.570675"><ele>560.318</ele><time>2018-04-22T10:01:03Z</time></trkpt><trkpt lat="42.898368" lon="-2.570436"><ele>560.438</ele><time>2018-04-22T10:01:15Z</time></trkpt><trkpt lat="42.898324" lon="-2.570188"><ele>559.128</ele><time>2018-04-22T10:01:28Z</time></trkpt><trkpt lat="42.898248" lon="-2.569952"><ele>559.684</ele><time>2018-04-22T10:01:40Z</time></trkpt><trkpt lat="42.898197" lon="-2.569709"><ele>561.407</ele><time>2018-04-22T10:01:51Z</time></trkpt><trkpt lat="42.898143" lon="-2.569451"><ele>563.017</ele><time>2018-04-22T10:02:02Z</time></trkpt><trkpt lat="42.898087" lon="-2.569216"><ele>563.908</ele><time>2018-04-22T10:02:13Z</time></trkpt><trkpt lat="42.898025" lon="-2.568974"><ele>564.120</ele><time>2018-04-22T10:02:25Z</time></trkpt><trkpt lat="42.897968" lon="-2.568732"><ele>565.372</ele><time>2018-04-22T10:02:37Z</time></trkpt><trkpt lat="42.897910" lon="-2.568499"><ele>566.940</ele><time>2018-04-22T10:02:49Z</time></trkpt><trkpt lat="42.897865" lon="-2.568245"><ele>567.723</ele><time>2018-04-22T10:03:20Z</time></trkpt><trkpt lat="42.897809" lon="-2.567990"><ele>568.189</ele><time>2018-04-22T10:03:31Z</time></trkpt><trkpt lat="42.897757" lon="-2.567752"><ele>566.918</ele><time>2018-04-22T10:03:42Z</time></trkpt><trkpt lat="42.897708" lon="-2.567495"><ele>563.378</ele><time>2018-04-22T10:03:55Z</time></trkpt><trkpt lat="42.897660" lon="-2.567251"><ele>561.848</ele><time>2018-04-22T10:04:07Z</time></trkpt><trkpt lat="42.897633" lon="-2.566995"><ele>562.183</ele><time>2018-04-22T10:04:19Z</time></trkpt><trkpt lat="42.897597" lon="-2.566738"><ele>564.425</ele><time>2018-04-22T10:04:31Z</time></trkpt><trkpt lat="42.897582" lon="-2.566486"><ele>567.817</ele><time>2018-04-22T10:04:43Z</time></trkpt><trkpt lat="42.897527" lon="-2.566232"><ele>567.608</ele><time>2018-04-22T10:04:55Z</time></trkpt><trkpt lat="42.897486" lon="-2.565977"><ele>569.540</ele><time>2018-04-22T10:05:07Z</time></trkpt><trkpt lat="42.897457" lon="-2.565720"><ele>573.082</ele><time>2018-04-22T10:05:19Z</time></trkpt><trkpt lat="42.897420" lon="-2.565475"><ele>573.790</ele><time>2018-04-22T10:05:30Z</time></trkpt><trkpt lat="42.897380" lon="-2.565213"><ele>575.663</ele><time>2018-04-22T10:05:42Z</time></trkpt><trkpt lat="42.897350" lon="-2.564949"><ele>575.969</ele><time>2018-04-22T10:05:55Z</time></trkpt><trkpt lat="42.897339" lon="-2.564694"><ele>576.538</ele><time>2018-04-22T10:06:07Z</time></trkpt><trkpt lat="42.897325" lon="-2.564448"><ele>574.868</ele><time>2018-04-22T10:06:18Z</time></trkpt><trkpt lat="42.897286" lon="-2.564207"><ele>574.518</ele><time>2018-04-22T10:06:29Z</time></trkpt><trkpt lat="42.897244" lon="-2.563955"><ele>571.667</ele><time>2018-04-22T10:06:41Z</time></trkpt><trkpt lat="42.897175" lon="-2.563717"><ele>572.281</ele><time>2018-04-22T10:06:53Z</time></trkpt><trkpt lat="42.897048" lon="-2.563530"><ele>570.819</ele><time>2018-04-22T10:07:05Z</time></trkpt><trkpt lat="42.896929" lon="-2.563340"><ele>570.808</ele><time>2018-04-22T10:07:16Z</time></trkpt><trkpt lat="42.896767" lon="-2.563196"><ele>566.598</ele><time>2018-04-22T10:07:29Z</time></trkpt><trkpt lat="42.896622" lon="-2.563039"><ele>562.820</ele><time>2018-04-22T10:07:42Z</time></trkpt><trkpt lat="42.896549" lon="-2.562801"><ele>561.548</ele><time>2018-04-22T10:07:54Z</time></trkpt><trkpt lat="42.896495" lon="-2.562557"><ele>561.891</ele><time>2018-04-22T10:08:06Z</time></trkpt><trkpt lat="42.896423" lon="-2.562325"><ele>562.197</ele><time>2018-04-22T10:08:18Z</time></trkpt><trkpt lat="42.896267" lon="-2.562185"><ele>558.036</ele><time>2018-04-22T10:08:30Z</time></trkpt><trkpt lat="42.896086" lon="-2.562102"><ele>558.036</ele><time>2018-04-22T10:08:42Z</time></trkpt><trkpt lat="42.895914" lon="-2.562200"><ele>558.436</ele><time>2018-04-22T10:09:02Z</time></trkpt><trkpt lat="42.895764" lon="-2.562036"><ele>562.245</ele><time>2018-04-22T10:10:03Z</time></trkpt><trkpt lat="42.895669" lon="-2.561812"><ele>559.747</ele><time>2018-04-22T10:13:08Z</time></trkpt><trkpt lat="42.895564" lon="-2.561609"><ele>561.311</ele><time>2018-04-22T10:13:19Z</time></trkpt><trkpt lat="42.895477" lon="-2.561389"><ele>562.908</ele><time>2018-04-22T10:13:31Z</time></trkpt><trkpt lat="42.895464" lon="-2.561129"><ele>563.476</ele><time>2018-04-22T10:13:45Z</time></trkpt><trkpt lat="42.895437" lon="-2.560871"><ele>565.668</ele><time>2018-04-22T10:13:58Z</time></trkpt><trkpt lat="42.895504" lon="-2.560643"><ele>563.856</ele><time>2018-04-22T10:14:11Z</time></trkpt><trkpt lat="42.895542" lon="-2.560401"><ele>567.379</ele><time>2018-04-22T10:14:24Z</time></trkpt><trkpt lat="42.895584" lon="-2.560147"><ele>572.245</ele><time>2018-04-22T10:14:37Z</time></trkpt><trkpt lat="42.895670" lon="-2.559919"><ele>576.054</ele><time>2018-04-22T10:14:52Z</time></trkpt><trkpt lat="42.895716" lon="-2.559669"><ele>581.474</ele><time>2018-04-22T10:15:06Z</time></trkpt><trkpt lat="42.895737" lon="-2.559418"><ele>583.554</ele><time>2018-04-22T10:15:19Z</time></trkpt><trkpt lat="42.895769" lon="-2.559166"><ele>585.438</ele><time>2018-04-22T10:15:33Z</time></trkpt><trkpt lat="42.895815" lon="-2.558907"><ele>588.570</ele><time>2018-04-22T10:15:47Z</time></trkpt><trkpt lat="42.895877" lon="-2.558672"><ele>592.217</ele><time>2018-04-22T10:15:59Z</time></trkpt><trkpt lat="42.895868" lon="-2.558419"><ele>593.408</ele><time>2018-04-22T10:16:44Z</time></trkpt><trkpt lat="42.895853" lon="-2.558163"><ele>591.815</ele><time>2018-04-22T10:16:58Z</time></trkpt><trkpt lat="42.895805" lon="-2.557911"><ele>591.027</ele><time>2018-04-22T10:17:11Z</time></trkpt><trkpt lat="42.895742" lon="-2.557659"><ele>588.825</ele><time>2018-04-22T10:17:24Z</time></trkpt><trkpt lat="42.895657" lon="-2.557427"><ele>587.218</ele><time>2018-04-22T10:17:36Z</time></trkpt><trkpt lat="42.895575" lon="-2.557207"><ele>586.764</ele><time>2018-04-22T10:17:47Z</time></trkpt><trkpt lat="42.895484" lon="-2.556980"><ele>585.643</ele><time>2018-04-22T10:18:00Z</time></trkpt><trkpt lat="42.895400" lon="-2.556762"><ele>585.583</ele><time>2018-04-22T10:18:12Z</time></trkpt><trkpt lat="42.895309" lon="-2.556549"><ele>580.543</ele><time>2018-04-22T10:18:24Z</time></trkpt><trkpt lat="42.895215" lon="-2.556317"><ele>578.515</ele><time>2018-04-22T10:18:36Z</time></trkpt><trkpt lat="42.895110" lon="-2.556116"><ele>574.365</ele><time>2018-04-22T10:18:47Z</time></trkpt><trkpt lat="42.894986" lon="-2.555921"><ele>572.411</ele><time>2018-04-22T10:18:58Z</time></trkpt><trkpt lat="42.894869" lon="-2.555722"><ele>567.408</ele><time>2018-04-22T10:19:09Z</time></trkpt><trkpt lat="42.894776" lon="-2.555504"><ele>567.183</ele><time>2018-04-22T10:19:21Z</time></trkpt><trkpt lat="42.894716" lon="-2.555262"><ele>564.765</ele><time>2018-04-22T10:19:34Z</time></trkpt><trkpt lat="42.894734" lon="-2.555014"><ele>560.463</ele><time>2018-04-22T10:19:47Z</time></trkpt><trkpt lat="42.894684" lon="-2.554778"><ele>555.656</ele><time>2018-04-22T10:20:12Z</time></trkpt><trkpt lat="42.894607" lon="-2.554542"><ele>556.062</ele><time>2018-04-22T10:20:27Z</time></trkpt><trkpt lat="42.894494" lon="-2.554335"><ele>554.651</ele><time>2018-04-22T10:20:40Z</time></trkpt><trkpt lat="42.894389" lon="-2.554132"><ele>556.561</ele><time>2018-04-22T10:20:52Z</time></trkpt><trkpt lat="42.894202" lon="-2.554098"><ele>555.681</ele><time>2018-04-22T10:21:08Z</time></trkpt><trkpt lat="42.894055" lon="-2.554250"><ele>554.059</ele><time>2018-04-22T10:21:27Z</time></trkpt><trkpt lat="42.893878" lon="-2.554349"><ele>556.103</ele><time>2018-04-22T10:21:48Z</time></trkpt><trkpt lat="42.893690" lon="-2.554374"><ele>558.523</ele><time>2018-04-22T10:22:03Z</time></trkpt><trkpt lat="42.893518" lon="-2.554280"><ele>559.808</ele><time>2018-04-22T10:23:13Z</time></trkpt><trkpt lat="42.893329" lon="-2.554262"><ele>563.677</ele><time>2018-04-22T10:23:28Z</time></trkpt><trkpt lat="42.893164" lon="-2.554368"><ele>563.999</ele><time>2018-04-22T10:23:42Z</time></trkpt><trkpt lat="42.893030" lon="-2.554544"><ele>559.387</ele><time>2018-04-22T10:23:55Z</time></trkpt><trkpt lat="42.892900" lon="-2.554737"><ele>560.830</ele><time>2018-04-22T10:24:08Z</time></trkpt><trkpt lat="42.892769" lon="-2.554915"><ele>559.456</ele><time>2018-04-22T10:24:21Z</time></trkpt><trkpt lat="42.892620" lon="-2.555068"><ele>558.055</ele><time>2018-04-22T10:24:57Z</time></trkpt><trkpt lat="42.892461" lon="-2.555201"><ele>558.975</ele><time>2018-04-22T10:25:12Z</time></trkpt><trkpt lat="42.892297" lon="-2.555306"><ele>553.095</ele><time>2018-04-22T10:26:28Z</time></trkpt><trkpt lat="42.892162" lon="-2.555491"><ele>552.853</ele><time>2018-04-22T10:26:44Z</time></trkpt><trkpt lat="42.892008" lon="-2.555619"><ele>552.404</ele><time>2018-04-22T10:26:58Z</time></trkpt><trkpt lat="42.891844" lon="-2.555753"><ele>550.814</ele><time>2018-04-22T10:27:14Z</time></trkpt><trkpt lat="42.891671" lon="-2.555849"><ele>553.808</ele><time>2018-04-22T10:27:29Z</time></trkpt><trkpt lat="42.891502" lon="-2.555939"><ele>558.587</ele><time>2018-04-22T10:27:47Z</time></trkpt><trkpt lat="42.891336" lon="-2.556060"><ele>562.229</ele><time>2018-04-22T10:28:06Z</time></trkpt><trkpt lat="42.891359" lon="-2.556322"><ele>562.077</ele><time>2018-04-22T10:30:02Z</time></trkpt><trkpt lat="42.891452" lon="-2.556554"><ele>563.820</ele><time>2018-04-22T10:30:14Z</time></trkpt><trkpt lat="42.891540" lon="-2.556801"><ele>561.516</ele><time>2018-04-22T10:30:25Z</time></trkpt><trkpt lat="42.891589" lon="-2.557044"><ele>560.115</ele><time>2018-04-22T10:30:31Z</time></trkpt><trkpt lat="42.891650" lon="-2.557282"><ele>558.785</ele><time>2018-04-22T10:30:37Z</time></trkpt><trkpt lat="42.891686" lon="-2.557561"><ele>559.145</ele><time>2018-04-22T10:30:44Z</time></trkpt><trkpt lat="42.891782" lon="-2.557794"><ele>561.938</ele><time>2018-04-22T10:30:54Z</time></trkpt><trkpt lat="42.891882" lon="-2.558011"><ele>561.570</ele><time>2018-04-22T10:31:06Z</time></trkpt><trkpt lat="42.891970" lon="-2.558232"><ele>564.117</ele><time>2018-04-22T10:31:17Z</time></trkpt><trkpt lat="42.892080" lon="-2.558451"><ele>565.208</ele><time>2018-04-22T10:31:29Z</time></trkpt><trkpt lat="42.892194" lon="-2.558651"><ele>564.925</ele><time>2018-04-22T10:31:41Z</time></trkpt><trkpt lat="42.892262" lon="-2.558890"><ele>564.637</ele><time>2018-04-22T10:31:53Z</time></trkpt><trkpt lat="42.892341" lon="-2.559133"><ele>563.635</ele><time>2018-04-22T10:32:05Z</time></trkpt><trkpt lat="42.892413" lon="-2.559364"><ele>563.778</ele><time>2018-04-22T10:32:17Z</time></trkpt><trkpt lat="42.892443" lon="-2.559620"><ele>562.534</ele><time>2018-04-22T10:32:30Z</time></trkpt><trkpt lat="42.892445" lon="-2.559875"><ele>558.633</ele><time>2018-04-22T10:32:42Z</time></trkpt><trkpt lat="42.892474" lon="-2.560128"><ele>556.443</ele><time>2018-04-22T10:32:55Z</time></trkpt><trkpt lat="42.892511" lon="-2.560374"><ele>558.823</ele><time>2018-04-22T10:33:07Z</time></trkpt><trkpt lat="42.892526" lon="-2.560620"><ele>557.546</ele><time>2018-04-22T10:33:19Z</time></trkpt><trkpt lat="42.892535" lon="-2.560865"><ele>557.888</ele><time>2018-04-22T10:33:31Z</time></trkpt><trkpt lat="42.892553" lon="-2.561127"><ele>555.316</ele><time>2018-04-22T10:33:44Z</time></trkpt><trkpt lat="42.892564" lon="-2.561392"><ele>554.508</ele><time>2018-04-22T10:33:57Z</time></trkpt><trkpt lat="42.892494" lon="-2.561622"><ele>552.816</ele><time>2018-04-22T10:34:10Z</time></trkpt><trkpt lat="42.892307" lon="-2.561633"><ele>553.878</ele><time>2018-04-22T10:34:21Z</time></trkpt><trkpt lat="42.892119" lon="-2.561667"><ele>554.156</ele><time>2018-04-22T10:34:33Z</time></trkpt><trkpt lat="42.891934" lon="-2.561706"><ele>550.129</ele><time>2018-04-22T10:34:45Z</time></trkpt><trkpt lat="42.891742" lon="-2.561709"><ele>551.095</ele><time>2018-04-22T10:34:57Z</time></trkpt><trkpt lat="42.891548" lon="-2.561716"><ele>553.534</ele><time>2018-04-22T10:35:09Z</time></trkpt><trkpt lat="42.891356" lon="-2.561687"><ele>554.844</ele><time>2018-04-22T10:35:22Z</time></trkpt><trkpt lat="42.891175" lon="-2.561675"><ele>555.274</ele><time>2018-04-22T10:35:34Z</time></trkpt><trkpt lat="42.890991" lon="-2.561733"><ele>554.064</ele><time>2018-04-22T10:35:48Z</time></trkpt><trkpt lat="42.890815" lon="-2.561799"><ele>554.406</ele><time>2018-04-22T10:36:05Z</time></trkpt><trkpt lat="42.890623" lon="-2.561783"><ele>555.416</ele><time>2018-04-22T10:36:18Z</time></trkpt><trkpt lat="42.890432" lon="-2.561737"><ele>555.608</ele><time>2018-04-22T10:36:28Z</time></trkpt><trkpt lat="42.890282" lon="-2.561565"><ele>557.418</ele><time>2018-04-22T10:36:40Z</time></trkpt><trkpt lat="42.890103" lon="-2.561583"><ele>555.370</ele><time>2018-04-22T10:36:52Z</time></trkpt><trkpt lat="42.889941" lon="-2.561693"><ele>557.078</ele><time>2018-04-22T10:37:03Z</time></trkpt><trkpt lat="42.889771" lon="-2.561775"><ele>559.811</ele><time>2018-04-22T10:37:14Z</time></trkpt><trkpt lat="42.889592" lon="-2.561827"><ele>559.777</ele><time>2018-04-22T10:37:25Z</time></trkpt><trkpt lat="42.889423" lon="-2.561919"><ele>559.756</ele><time>2018-04-22T10:37:39Z</time></trkpt><trkpt lat="42.889249" lon="-2.562017"><ele>558.396</ele><time>2018-04-22T10:37:50Z</time></trkpt><trkpt lat="42.889057" lon="-2.562044"><ele>556.526</ele><time>2018-04-22T10:38:02Z</time></trkpt><trkpt lat="42.888877" lon="-2.562072"><ele>556.822</ele><time>2018-04-22T10:38:13Z</time></trkpt><trkpt lat="42.888693" lon="-2.562135"><ele>558.462</ele><time>2018-04-22T10:38:23Z</time></trkpt><trkpt lat="42.888508" lon="-2.562229"><ele>559.808</ele><time>2018-04-22T10:38:35Z</time></trkpt><trkpt lat="42.888326" lon="-2.562231"><ele>561.208</ele><time>2018-04-22T10:38:46Z</time></trkpt><trkpt lat="42.888134" lon="-2.562212"><ele>558.184</ele><time>2018-04-22T10:38:58Z</time></trkpt><trkpt lat="42.887947" lon="-2.562151"><ele>554.086</ele><time>2018-04-22T10:39:11Z</time></trkpt><trkpt lat="42.887765" lon="-2.562204"><ele>555.024</ele><time>2018-04-22T10:39:27Z</time></trkpt><trkpt lat="42.887571" lon="-2.562223"><ele>554.927</ele><time>2018-04-22T10:39:39Z</time></trkpt><trkpt lat="42.887386" lon="-2.562274"><ele>553.843</ele><time>2018-04-22T10:39:51Z</time></trkpt><trkpt lat="42.887207" lon="-2.562339"><ele>556.232</ele><time>2018-04-22T10:40:02Z</time></trkpt><trkpt lat="42.887068" lon="-2.562497"><ele>558.522</ele><time>2018-04-22T10:40:13Z</time></trkpt><trkpt lat="42.886892" lon="-2.562444"><ele>555.722</ele><time>2018-04-22T10:40:27Z</time></trkpt><trkpt lat="42.886788" lon="-2.562241"><ele>553.427</ele><time>2018-04-22T10:40:39Z</time></trkpt><trkpt lat="42.886613" lon="-2.562153"><ele>554.568</ele><time>2018-04-22T10:40:51Z</time></trkpt><trkpt lat="42.886432" lon="-2.562154"><ele>552.814</ele><time>2018-04-22T10:41:02Z</time></trkpt><trkpt lat="42.886256" lon="-2.562220"><ele>550.408</ele><time>2018-04-22T10:41:13Z</time></trkpt><trkpt lat="42.886071" lon="-2.562286"><ele>549.324</ele><time>2018-04-22T10:41:25Z</time></trkpt><trkpt lat="42.885897" lon="-2.562349"><ele>550.566</ele><time>2018-04-22T10:41:37Z</time></trkpt><trkpt lat="42.885721" lon="-2.562458"><ele>551.534</ele><time>2018-04-22T10:41:49Z</time></trkpt><trkpt lat="42.885595" lon="-2.562640"><ele>551.287</ele><time>2018-04-22T10:42:00Z</time></trkpt><trkpt lat="42.885462" lon="-2.562822"><ele>550.463</ele><time>2018-04-22T10:42:13Z</time></trkpt><trkpt lat="42.885330" lon="-2.563016"><ele>550.922</ele><time>2018-04-22T10:42:26Z</time></trkpt><trkpt lat="42.885185" lon="-2.563177"><ele>553.972</ele><time>2018-04-22T10:42:37Z</time></trkpt><trkpt lat="42.885000" lon="-2.563226"><ele>552.392</ele><time>2018-04-22T10:42:50Z</time></trkpt><trkpt lat="42.884823" lon="-2.563274"><ele>552.475</ele><time>2018-04-22T10:43:02Z</time></trkpt><trkpt lat="42.884647" lon="-2.563352"><ele>552.328</ele><time>2018-04-22T10:43:16Z</time></trkpt><trkpt lat="42.884462" lon="-2.563367"><ele>552.120</ele><time>2018-04-22T10:43:30Z</time></trkpt><trkpt lat="42.884277" lon="-2.563408"><ele>554.608</ele><time>2018-04-22T10:43:43Z</time></trkpt><trkpt lat="42.884099" lon="-2.563446"><ele>557.689</ele><time>2018-04-22T10:43:59Z</time></trkpt><trkpt lat="42.883916" lon="-2.563501"><ele>560.271</ele><time>2018-04-22T10:44:15Z</time></trkpt><trkpt lat="42.883714" lon="-2.563526"><ele>561.129</ele><time>2018-04-22T10:44:26Z</time></trkpt><trkpt lat="42.883533" lon="-2.563533"><ele>559.332</ele><time>2018-04-22T10:44:35Z</time></trkpt><trkpt lat="42.883348" lon="-2.563568"><ele>559.688</ele><time>2018-04-22T10:44:53Z</time></trkpt><trkpt lat="42.883162" lon="-2.563601"><ele>560.167</ele><time>2018-04-22T10:45:02Z</time></trkpt><trkpt lat="42.882988" lon="-2.563683"><ele>561.567</ele><time>2018-04-22T10:45:14Z</time></trkpt><trkpt lat="42.882852" lon="-2.563845"><ele>564.197</ele><time>2018-04-22T10:45:25Z</time></trkpt><trkpt lat="42.882714" lon="-2.564024"><ele>564.197</ele><time>2018-04-22T10:45:36Z</time></trkpt><trkpt lat="42.882567" lon="-2.564194"><ele>559.423</ele><time>2018-04-22T10:45:48Z</time></trkpt><trkpt lat="42.882406" lon="-2.564303"><ele>559.125</ele><time>2018-04-22T10:45:59Z</time></trkpt><trkpt lat="42.882214" lon="-2.564339"><ele>558.708</ele><time>2018-04-22T10:46:11Z</time></trkpt><trkpt lat="42.882028" lon="-2.564361"><ele>556.011</ele><time>2018-04-22T10:46:23Z</time></trkpt><trkpt lat="42.881835" lon="-2.564380"><ele>554.873</ele><time>2018-04-22T10:46:36Z</time></trkpt><trkpt lat="42.881652" lon="-2.564390"><ele>552.411</ele><time>2018-04-22T10:46:48Z</time></trkpt><trkpt lat="42.881462" lon="-2.564375"><ele>552.324</ele><time>2018-04-22T10:47:00Z</time></trkpt><trkpt lat="42.881294" lon="-2.564284"><ele>548.560</ele><time>2018-04-22T10:47:12Z</time></trkpt><trkpt lat="42.881103" lon="-2.564231"><ele>549.059</ele><time>2018-04-22T10:47:24Z</time></trkpt><trkpt lat="42.880914" lon="-2.564250"><ele>549.589</ele><time>2018-04-22T10:47:35Z</time></trkpt><trkpt lat="42.880722" lon="-2.564287"><ele>548.219</ele><time>2018-04-22T10:47:47Z</time></trkpt><trkpt lat="42.880534" lon="-2.564323"><ele>547.064</ele><time>2018-04-22T10:47:59Z</time></trkpt><trkpt lat="42.880347" lon="-2.564378"><ele>547.406</ele><time>2018-04-22T10:48:10Z</time></trkpt><trkpt lat="42.880162" lon="-2.564427"><ele>549.216</ele><time>2018-04-22T10:48:21Z</time></trkpt><trkpt lat="42.879978" lon="-2.564467"><ele>549.708</ele><time>2018-04-22T10:48:32Z</time></trkpt><trkpt lat="42.879800" lon="-2.564508"><ele>550.018</ele><time>2018-04-22T10:48:43Z</time></trkpt><trkpt lat="42.879622" lon="-2.564572"><ele>549.990</ele><time>2018-04-22T10:48:54Z</time></trkpt><trkpt lat="42.879442" lon="-2.564593"><ele>547.758</ele><time>2018-04-22T10:49:04Z</time></trkpt><trkpt lat="42.879260" lon="-2.564634"><ele>549.041</ele><time>2018-04-22T10:49:15Z</time></trkpt><trkpt lat="42.879078" lon="-2.564656"><ele>548.797</ele><time>2018-04-22T10:49:27Z</time></trkpt><trkpt lat="42.878894" lon="-2.564677"><ele>548.036</ele><time>2018-04-22T10:49:41Z</time></trkpt><trkpt lat="42.878712" lon="-2.564701"><ele>551.066</ele><time>2018-04-22T10:49:54Z</time></trkpt><trkpt lat="42.878532" lon="-2.564752"><ele>553.796</ele><time>2018-04-22T10:50:05Z</time></trkpt><trkpt lat="42.878353" lon="-2.564787"><ele>553.945</ele><time>2018-04-22T10:50:16Z</time></trkpt><trkpt lat="42.878174" lon="-2.564835"><ele>555.047</ele><time>2018-04-22T10:50:27Z</time></trkpt><trkpt lat="42.877987" lon="-2.564847"><ele>551.311</ele><time>2018-04-22T10:50:40Z</time></trkpt><trkpt lat="42.877796" lon="-2.564890"><ele>549.508</ele><time>2018-04-22T10:50:52Z</time></trkpt><trkpt lat="42.877611" lon="-2.564941"><ele>548.996</ele><time>2018-04-22T10:51:05Z</time></trkpt><trkpt lat="42.877432" lon="-2.564976"><ele>548.178</ele><time>2018-04-22T10:51:17Z</time></trkpt><trkpt lat="42.877242" lon="-2.565017"><ele>547.556</ele><time>2018-04-22T10:51:30Z</time></trkpt><trkpt lat="42.877061" lon="-2.565044"><ele>547.639</ele><time>2018-04-22T10:51:42Z</time></trkpt><trkpt lat="42.876883" lon="-2.565092"><ele>549.545</ele><time>2018-04-22T10:51:53Z</time></trkpt><trkpt lat="42.876691" lon="-2.565139"><ele>550.694</ele><time>2018-04-22T10:52:05Z</time></trkpt><trkpt lat="42.876506" lon="-2.565172"><ele>550.744</ele><time>2018-04-22T10:52:16Z</time></trkpt><trkpt lat="42.875398" lon="-2.565389"><ele>557.744</ele><time>2018-04-22T10:55:35Z</time></trkpt><trkpt lat="42.875221" lon="-2.565484"><ele>544.967</ele><time>2018-04-22T10:55:56Z</time></trkpt><trkpt lat="42.875058" lon="-2.565608"><ele>544.281</ele><time>2018-04-22T10:56:09Z</time></trkpt><trkpt lat="42.874972" lon="-2.565830"><ele>543.119</ele><time>2018-04-22T10:56:21Z</time></trkpt><trkpt lat="42.874930" lon="-2.566088"><ele>542.808</ele><time>2018-04-22T10:56:34Z</time></trkpt><trkpt lat="42.874889" lon="-2.566340"><ele>536.878</ele><time>2018-04-22T10:56:48Z</time></trkpt><trkpt lat="42.874798" lon="-2.566563"><ele>535.550</ele><time>2018-04-22T10:57:01Z</time></trkpt><trkpt lat="42.874631" lon="-2.566657"><ele>532.648</ele><time>2018-04-22T10:57:15Z</time></trkpt><trkpt lat="42.874441" lon="-2.566649"><ele>533.571</ele><time>2018-04-22T10:57:28Z</time></trkpt><trkpt lat="42.874261" lon="-2.566601"><ele>536.447</ele><time>2018-04-22T10:57:40Z</time></trkpt><trkpt lat="42.874070" lon="-2.566557"><ele>536.816</ele><time>2018-04-22T10:57:53Z</time></trkpt><trkpt lat="42.873887" lon="-2.566544"><ele>533.816</ele><time>2018-04-22T10:58:09Z</time></trkpt><trkpt lat="42.873695" lon="-2.566535"><ele>532.616</ele><time>2018-04-22T10:58:21Z</time></trkpt><trkpt lat="42.873502" lon="-2.566561"><ele>529.882</ele><time>2018-04-22T10:58:34Z</time></trkpt><trkpt lat="42.873323" lon="-2.566598"><ele>528.543</ele><time>2018-04-22T10:58:46Z</time></trkpt><trkpt lat="42.873141" lon="-2.566603"><ele>527.317</ele><time>2018-04-22T10:58:58Z</time></trkpt><trkpt lat="42.872973" lon="-2.566502"><ele>526.308</ele><time>2018-04-22T10:59:26Z</time></trkpt><trkpt lat="42.872852" lon="-2.566298"><ele>526.370</ele><time>2018-04-22T10:59:39Z</time></trkpt><trkpt lat="42.872760" lon="-2.566083"><ele>528.352</ele><time>2018-04-22T10:59:52Z</time></trkpt><trkpt lat="42.872661" lon="-2.565862"><ele>529.560</ele><time>2018-04-22T11:00:05Z</time></trkpt><trkpt lat="42.872568" lon="-2.565651"><ele>532.773</ele><time>2018-04-22T11:00:18Z</time></trkpt><trkpt lat="42.872471" lon="-2.565443"><ele>529.759</ele><time>2018-04-22T11:00:30Z</time></trkpt><trkpt lat="42.872344" lon="-2.565259"><ele>529.978</ele><time>2018-04-22T11:00:43Z</time></trkpt><trkpt lat="42.872175" lon="-2.565138"><ele>528.798</ele><time>2018-04-22T11:00:55Z</time></trkpt><trkpt lat="42.872078" lon="-2.564917"><ele>531.478</ele><time>2018-04-22T11:01:09Z</time></trkpt><trkpt lat="42.872054" lon="-2.564673"><ele>530.968</ele><time>2018-04-22T11:01:21Z</time></trkpt><trkpt lat="42.872012" lon="-2.564427"><ele>529.342</ele><time>2018-04-22T11:01:33Z</time></trkpt><trkpt lat="42.871978" lon="-2.564176"><ele>525.026</ele><time>2018-04-22T11:01:45Z</time></trkpt><trkpt lat="42.871930" lon="-2.563923"><ele>525.908</ele><time>2018-04-22T11:01:58Z</time></trkpt><trkpt lat="42.871906" lon="-2.563659"><ele>529.918</ele><time>2018-04-22T11:02:12Z</time></trkpt><trkpt lat="42.871881" lon="-2.563400"><ele>530.790</ele><time>2018-04-22T11:02:24Z</time></trkpt><trkpt lat="42.871855" lon="-2.563140"><ele>531.398</ele><time>2018-04-22T11:02:36Z</time></trkpt><trkpt lat="42.871831" lon="-2.562895"><ele>531.041</ele><time>2018-04-22T11:02:48Z</time></trkpt><trkpt lat="42.871796" lon="-2.562642"><ele>530.127</ele><time>2018-04-22T11:03:00Z</time></trkpt><trkpt lat="42.871754" lon="-2.562393"><ele>530.866</ele><time>2018-04-22T11:03:12Z</time></trkpt><trkpt lat="42.871766" lon="-2.562139"><ele>530.796</ele><time>2018-04-22T11:03:24Z</time></trkpt><trkpt lat="42.871746" lon="-2.561889"><ele>530.436</ele><time>2018-04-22T11:03:36Z</time></trkpt><trkpt lat="42.871659" lon="-2.561665"><ele>531.779</ele><time>2018-04-22T11:03:49Z</time></trkpt><trkpt lat="42.871562" lon="-2.561444"><ele>532.305</ele><time>2018-04-22T11:04:01Z</time></trkpt><trkpt lat="42.871458" lon="-2.561231"><ele>531.825</ele><time>2018-04-22T11:04:13Z</time></trkpt><trkpt lat="42.871353" lon="-2.561029"><ele>531.508</ele><time>2018-04-22T11:04:25Z</time></trkpt><trkpt lat="42.871247" lon="-2.560819"><ele>529.159</ele><time>2018-04-22T11:04:37Z</time></trkpt><trkpt lat="42.871168" lon="-2.560583"><ele>532.091</ele><time>2018-04-22T11:04:51Z</time></trkpt><trkpt lat="42.871071" lon="-2.560361"><ele>529.399</ele><time>2018-04-22T11:05:04Z</time></trkpt><trkpt lat="42.870959" lon="-2.560160"><ele>529.762</ele><time>2018-04-22T11:05:16Z</time></trkpt><trkpt lat="42.870870" lon="-2.559935"><ele>529.318</ele><time>2018-04-22T11:05:29Z</time></trkpt><trkpt lat="42.870775" lon="-2.559704"><ele>530.037</ele><time>2018-04-22T11:05:42Z</time></trkpt><trkpt lat="42.870663" lon="-2.559508"><ele>529.847</ele><time>2018-04-22T11:05:54Z</time></trkpt><trkpt lat="42.870571" lon="-2.559276"><ele>530.467</ele><time>2018-04-22T11:06:07Z</time></trkpt><trkpt lat="42.870477" lon="-2.559061"><ele>532.272</ele><time>2018-04-22T11:06:19Z</time></trkpt><trkpt lat="42.870456" lon="-2.558809"><ele>532.413</ele><time>2018-04-22T11:06:41Z</time></trkpt><trkpt lat="42.870336" lon="-2.558600"><ele>532.214</ele><time>2018-04-22T11:06:54Z</time></trkpt><trkpt lat="42.870217" lon="-2.558408"><ele>531.208</ele><time>2018-04-22T11:07:06Z</time></trkpt><trkpt lat="42.870096" lon="-2.558212"><ele>531.159</ele><time>2018-04-22T11:07:19Z</time></trkpt><trkpt lat="42.869974" lon="-2.558023"><ele>531.091</ele><time>2018-04-22T11:07:31Z</time></trkpt><trkpt lat="42.869861" lon="-2.557819"><ele>532.519</ele><time>2018-04-22T11:07:45Z</time></trkpt><trkpt lat="42.869733" lon="-2.557625"><ele>532.982</ele><time>2018-04-22T11:07:59Z</time></trkpt><trkpt lat="42.869616" lon="-2.557437"><ele>532.148</ele><time>2018-04-22T11:08:11Z</time></trkpt><trkpt lat="42.869504" lon="-2.557242"><ele>531.287</ele><time>2018-04-22T11:08:23Z</time></trkpt><trkpt lat="42.869382" lon="-2.557055"><ele>532.367</ele><time>2018-04-22T11:08:35Z</time></trkpt><trkpt lat="42.869259" lon="-2.556851"><ele>531.797</ele><time>2018-04-22T11:08:48Z</time></trkpt><trkpt lat="42.869126" lon="-2.556662"><ele>531.451</ele><time>2018-04-22T11:09:01Z</time></trkpt><trkpt lat="42.868995" lon="-2.556493"><ele>531.501</ele><time>2018-04-22T11:09:13Z</time></trkpt><trkpt lat="42.868834" lon="-2.556348"><ele>529.111</ele><time>2018-04-22T11:09:25Z</time></trkpt><trkpt lat="42.868690" lon="-2.556190"><ele>531.208</ele><time>2018-04-22T11:09:38Z</time></trkpt><trkpt lat="42.868541" lon="-2.556027"><ele>530.887</ele><time>2018-04-22T11:09:52Z</time></trkpt><trkpt lat="42.868389" lon="-2.555887"><ele>532.469</ele><time>2018-04-22T11:10:05Z</time></trkpt><trkpt lat="42.868235" lon="-2.555735"><ele>532.147</ele><time>2018-04-22T11:10:18Z</time></trkpt><trkpt lat="42.868082" lon="-2.555579"><ele>532.310</ele><time>2018-04-22T11:10:31Z</time></trkpt><trkpt lat="42.867937" lon="-2.555430"><ele>533.286</ele><time>2018-04-22T11:10:43Z</time></trkpt><trkpt lat="42.867782" lon="-2.555276"><ele>534.215</ele><time>2018-04-22T11:10:55Z</time></trkpt><trkpt lat="42.867626" lon="-2.555145"><ele>534.945</ele><time>2018-04-22T11:11:06Z</time></trkpt><trkpt lat="42.867454" lon="-2.555033"><ele>535.045</ele><time>2018-04-22T11:11:18Z</time></trkpt><trkpt lat="42.867286" lon="-2.554939"><ele>533.859</ele><time>2018-04-22T11:11:32Z</time></trkpt><trkpt lat="42.867110" lon="-2.554835"><ele>533.303</ele><time>2018-04-22T11:11:49Z</time></trkpt><trkpt lat="42.866936" lon="-2.554726"><ele>536.923</ele><time>2018-04-22T11:12:22Z</time></trkpt><trkpt lat="42.866762" lon="-2.554610"><ele>535.208</ele><time>2018-04-22T11:12:34Z</time></trkpt><trkpt lat="42.866596" lon="-2.554514"><ele>534.387</ele><time>2018-04-22T11:12:45Z</time></trkpt><trkpt lat="42.866431" lon="-2.554405"><ele>533.589</ele><time>2018-04-22T11:12:56Z</time></trkpt><trkpt lat="42.866258" lon="-2.554299"><ele>532.427</ele><time>2018-04-22T11:13:08Z</time></trkpt><trkpt lat="42.866088" lon="-2.554185"><ele>532.620</ele><time>2018-04-22T11:13:20Z</time></trkpt><trkpt lat="42.865916" lon="-2.554106"><ele>532.416</ele><time>2018-04-22T11:13:33Z</time></trkpt><trkpt lat="42.865741" lon="-2.553994"><ele>532.825</ele><time>2018-04-22T11:13:46Z</time></trkpt><trkpt lat="42.865573" lon="-2.553890"><ele>532.085</ele><time>2018-04-22T11:13:58Z</time></trkpt><trkpt lat="42.865407" lon="-2.553993"><ele>532.055</ele><time>2018-04-22T11:14:10Z</time></trkpt><trkpt lat="42.865263" lon="-2.554162"><ele>533.112</ele><time>2018-04-22T11:14:23Z</time></trkpt><trkpt lat="42.865106" lon="-2.554320"><ele>532.832</ele><time>2018-04-22T11:14:36Z</time></trkpt><trkpt lat="42.864974" lon="-2.554513"><ele>535.105</ele><time>2018-04-22T11:14:49Z</time></trkpt><trkpt lat="42.864837" lon="-2.554672"><ele>533.708</ele><time>2018-04-22T11:15:01Z</time></trkpt><trkpt lat="42.864690" lon="-2.554831"><ele>533.893</ele><time>2018-04-22T11:15:13Z</time></trkpt><trkpt lat="42.864538" lon="-2.554992"><ele>534.885</ele><time>2018-04-22T11:15:26Z</time></trkpt><trkpt lat="42.864394" lon="-2.555144"><ele>534.413</ele><time>2018-04-22T11:15:38Z</time></trkpt><trkpt lat="42.864251" lon="-2.555310"><ele>536.346</ele><time>2018-04-22T11:15:50Z</time></trkpt><trkpt lat="42.864101" lon="-2.555463"><ele>533.372</ele><time>2018-04-22T11:16:03Z</time></trkpt><trkpt lat="42.863950" lon="-2.555615"><ele>535.851</ele><time>2018-04-22T11:16:16Z</time></trkpt><trkpt lat="42.863817" lon="-2.555802"><ele>532.341</ele><time>2018-04-22T11:16:31Z</time></trkpt><trkpt lat="42.863687" lon="-2.556003"><ele>531.551</ele><time>2018-04-22T11:16:44Z</time></trkpt><trkpt lat="42.863534" lon="-2.556162"><ele>532.093</ele><time>2018-04-22T11:16:55Z</time></trkpt><trkpt lat="42.863376" lon="-2.556299"><ele>531.665</ele><time>2018-04-22T11:17:08Z</time></trkpt><trkpt lat="42.863231" lon="-2.556463"><ele>533.621</ele><time>2018-04-22T11:17:20Z</time></trkpt><trkpt lat="42.863086" lon="-2.556609"><ele>534.408</ele><time>2018-04-22T11:17:32Z</time></trkpt><trkpt lat="42.862960" lon="-2.556801"><ele>534.751</ele><time>2018-04-22T11:17:44Z</time></trkpt><trkpt lat="42.862814" lon="-2.556961"><ele>535.163</ele><time>2018-04-22T11:17:55Z</time></trkpt><trkpt lat="42.862671" lon="-2.557127"><ele>532.341</ele><time>2018-04-22T11:18:08Z</time></trkpt><trkpt lat="42.862533" lon="-2.557292"><ele>533.884</ele><time>2018-04-22T11:18:20Z</time></trkpt><trkpt lat="42.862392" lon="-2.557464"><ele>534.890</ele><time>2018-04-22T11:18:32Z</time></trkpt><trkpt lat="42.862254" lon="-2.557629"><ele>533.889</ele><time>2018-04-22T11:18:44Z</time></trkpt><trkpt lat="42.862118" lon="-2.557809"><ele>533.269</ele><time>2018-04-22T11:18:58Z</time></trkpt><trkpt lat="42.861980" lon="-2.557972"><ele>532.269</ele><time>2018-04-22T11:19:10Z</time></trkpt><trkpt lat="42.861821" lon="-2.558109"><ele>532.833</ele><time>2018-04-22T11:19:21Z</time></trkpt><trkpt lat="42.861685" lon="-2.558277"><ele>530.523</ele><time>2018-04-22T11:19:35Z</time></trkpt><trkpt lat="42.861535" lon="-2.558415"><ele>530.915</ele><time>2018-04-22T11:19:46Z</time></trkpt><trkpt lat="42.861414" lon="-2.558605"><ele>532.008</ele><time>2018-04-22T11:19:57Z</time></trkpt><trkpt lat="42.861291" lon="-2.558791"><ele>534.155</ele><time>2018-04-22T11:20:09Z</time></trkpt><trkpt lat="42.861142" lon="-2.558931"><ele>534.497</ele><time>2018-04-22T11:20:19Z</time></trkpt><trkpt lat="42.860989" lon="-2.559087"><ele>533.635</ele><time>2018-04-22T11:20:30Z</time></trkpt><trkpt lat="42.860834" lon="-2.559227"><ele>533.578</ele><time>2018-04-22T11:20:44Z</time></trkpt><trkpt lat="42.860646" lon="-2.559244"><ele>532.464</ele><time>2018-04-22T11:20:59Z</time></trkpt><trkpt lat="42.860485" lon="-2.559114"><ele>532.243</ele><time>2018-04-22T11:21:11Z</time></trkpt><trkpt lat="42.860304" lon="-2.559029"><ele>532.623</ele><time>2018-04-22T11:21:24Z</time></trkpt><trkpt lat="42.860134" lon="-2.558937"><ele>533.173</ele><time>2018-04-22T11:21:36Z</time></trkpt><trkpt lat="42.859955" lon="-2.558845"><ele>534.837</ele><time>2018-04-22T11:21:49Z</time></trkpt><trkpt lat="42.859780" lon="-2.558740"><ele>533.649</ele><time>2018-04-22T11:22:02Z</time></trkpt><trkpt lat="42.859606" lon="-2.558628"><ele>532.313</ele><time>2018-04-22T11:22:14Z</time></trkpt><trkpt lat="42.859448" lon="-2.558508"><ele>534.208</ele><time>2018-04-22T11:22:26Z</time></trkpt><trkpt lat="42.859265" lon="-2.558416"><ele>534.595</ele><time>2018-04-22T11:22:39Z</time></trkpt><trkpt lat="42.859104" lon="-2.558291"><ele>533.987</ele><time>2018-04-22T11:22:52Z</time></trkpt><trkpt lat="42.858936" lon="-2.558193"><ele>535.565</ele><time>2018-04-22T11:23:04Z</time></trkpt><trkpt lat="42.858762" lon="-2.558085"><ele>535.228</ele><time>2018-04-22T11:23:17Z</time></trkpt><trkpt lat="42.858598" lon="-2.557977"><ele>535.314</ele><time>2018-04-22T11:23:29Z</time></trkpt><trkpt lat="42.858417" lon="-2.557889"><ele>536.173</ele><time>2018-04-22T11:23:43Z</time></trkpt><trkpt lat="42.858228" lon="-2.557876"><ele>539.113</ele><time>2018-04-22T11:23:58Z</time></trkpt><trkpt lat="42.858122" lon="-2.558092"><ele>536.523</ele><time>2018-04-22T11:24:12Z</time></trkpt><trkpt lat="42.857986" lon="-2.558280"><ele>536.077</ele><time>2018-04-22T11:24:25Z</time></trkpt><trkpt lat="42.857850" lon="-2.558467"><ele>537.761</ele><time>2018-04-22T11:24:38Z</time></trkpt><trkpt lat="42.857706" lon="-2.558623"><ele>538.127</ele><time>2018-04-22T11:24:51Z</time></trkpt><trkpt lat="42.857561" lon="-2.558776"><ele>538.808</ele><time>2018-04-22T11:25:04Z</time></trkpt><trkpt lat="42.857409" lon="-2.558914"><ele>539.459</ele><time>2018-04-22T11:25:17Z</time></trkpt><trkpt lat="42.857239" lon="-2.559029"><ele>541.531</ele><time>2018-04-22T11:25:30Z</time></trkpt><trkpt lat="42.857059" lon="-2.558997"><ele>538.339</ele><time>2018-04-22T11:25:44Z</time></trkpt><trkpt lat="42.856884" lon="-2.559110"><ele>539.772</ele><time>2018-04-22T11:25:59Z</time></trkpt><trkpt lat="42.856725" lon="-2.559253"><ele>536.418</ele><time>2018-04-22T11:26:13Z</time></trkpt><trkpt lat="42.856548" lon="-2.559310"><ele>534.577</ele><time>2018-04-22T11:26:26Z</time></trkpt><trkpt lat="42.856355" lon="-2.559368"><ele>534.547</ele><time>2018-04-22T11:26:40Z</time></trkpt><trkpt lat="42.856174" lon="-2.559448"><ele>537.257</ele><time>2018-04-22T11:26:52Z</time></trkpt><trkpt lat="42.856006" lon="-2.559557"><ele>538.027</ele><time>2018-04-22T11:27:05Z</time></trkpt><trkpt lat="42.855837" lon="-2.559652"><ele>536.568</ele><time>2018-04-22T11:27:18Z</time></trkpt><trkpt lat="42.855647" lon="-2.559696"><ele>538.614</ele><time>2018-04-22T11:27:31Z</time></trkpt><trkpt lat="42.855471" lon="-2.559765"><ele>537.208</ele><time>2018-04-22T11:27:43Z</time></trkpt><trkpt lat="42.855294" lon="-2.559807"><ele>537.314</ele><time>2018-04-22T11:27:56Z</time></trkpt><trkpt lat="42.855110" lon="-2.559853"><ele>536.566</ele><time>2018-04-22T11:28:09Z</time></trkpt><trkpt lat="42.854925" lon="-2.559904"><ele>537.114</ele><time>2018-04-22T11:28:22Z</time></trkpt><trkpt lat="42.854738" lon="-2.559962"><ele>537.547</ele><time>2018-04-22T11:28:35Z</time></trkpt><trkpt lat="42.854550" lon="-2.560030"><ele>539.413</ele><time>2018-04-22T11:28:51Z</time></trkpt><trkpt lat="42.854367" lon="-2.560089"><ele>539.342</ele><time>2018-04-22T11:29:04Z</time></trkpt><trkpt lat="42.854194" lon="-2.560183"><ele>539.832</ele><time>2018-04-22T11:29:18Z</time></trkpt><trkpt lat="42.854019" lon="-2.560293"><ele>537.082</ele><time>2018-04-22T11:29:31Z</time></trkpt><trkpt lat="42.853838" lon="-2.560258"><ele>536.233</ele><time>2018-04-22T11:29:43Z</time></trkpt><trkpt lat="42.853652" lon="-2.560333"><ele>541.723</ele><time>2018-04-22T11:30:00Z</time></trkpt><trkpt lat="42.853462" lon="-2.560356"><ele>541.715</ele><time>2018-04-22T11:30:17Z</time></trkpt><trkpt lat="42.853284" lon="-2.560426"><ele>544.208</ele><time>2018-04-22T11:30:32Z</time></trkpt><trkpt lat="42.853115" lon="-2.560552"><ele>544.965</ele><time>2018-04-22T11:30:44Z</time></trkpt><trkpt lat="42.853006" lon="-2.560767"><ele>544.977</ele><time>2018-04-22T11:30:57Z</time></trkpt><trkpt lat="42.852883" lon="-2.560953"><ele>545.835</ele><time>2018-04-22T11:31:10Z</time></trkpt><trkpt lat="42.852771" lon="-2.561145"><ele>543.498</ele><time>2018-04-22T11:31:23Z</time></trkpt><trkpt lat="42.852653" lon="-2.561330"><ele>544.194</ele><time>2018-04-22T11:31:36Z</time></trkpt><trkpt lat="42.852533" lon="-2.561520"><ele>548.613</ele><time>2018-04-22T11:31:48Z</time></trkpt><trkpt lat="42.852419" lon="-2.561723"><ele>552.453</ele><time>2018-04-22T11:32:02Z</time></trkpt><trkpt lat="42.852301" lon="-2.561923"><ele>553.343</ele><time>2018-04-22T11:32:16Z</time></trkpt><trkpt lat="42.852215" lon="-2.562139"><ele>555.497</ele><time>2018-04-22T11:32:29Z</time></trkpt><trkpt lat="42.852101" lon="-2.562345"><ele>556.723</ele><time>2018-04-22T11:32:42Z</time></trkpt><trkpt lat="42.851987" lon="-2.562545"><ele>557.725</ele><time>2018-04-22T11:32:56Z</time></trkpt><trkpt lat="42.851867" lon="-2.562735"><ele>560.308</ele><time>2018-04-22T11:33:08Z</time></trkpt><trkpt lat="42.851759" lon="-2.562947"><ele>560.781</ele><time>2018-04-22T11:33:21Z</time></trkpt><trkpt lat="42.851660" lon="-2.563162"><ele>559.393</ele><time>2018-04-22T11:33:35Z</time></trkpt><trkpt lat="42.851581" lon="-2.563392"><ele>559.321</ele><time>2018-04-22T11:33:47Z</time></trkpt><trkpt lat="42.851502" lon="-2.563617"><ele>561.894</ele><time>2018-04-22T11:33:59Z</time></trkpt><trkpt lat="42.851438" lon="-2.563847"><ele>563.150</ele><time>2018-04-22T11:34:11Z</time></trkpt><trkpt lat="42.851376" lon="-2.564094"><ele>565.149</ele><time>2018-04-22T11:34:24Z</time></trkpt><trkpt lat="42.851294" lon="-2.564324"><ele>564.029</ele><time>2018-04-22T11:34:37Z</time></trkpt><trkpt lat="42.851178" lon="-2.564511"><ele>565.289</ele><time>2018-04-22T11:34:50Z</time></trkpt><trkpt lat="42.851009" lon="-2.564599"><ele>562.529</ele><time>2018-04-22T11:35:03Z</time></trkpt><trkpt lat="42.850833" lon="-2.564672"><ele>563.000</ele><time>2018-04-22T11:35:16Z</time></trkpt><trkpt lat="42.850688" lon="-2.564844"><ele>563.720</ele><time>2018-04-22T11:35:30Z</time></trkpt><trkpt lat="42.850619" lon="-2.565078"><ele>564.608</ele><time>2018-04-22T11:35:43Z</time></trkpt><trkpt lat="42.850638" lon="-2.565330"><ele>565.424</ele><time>2018-04-22T11:35:59Z</time></trkpt><trkpt lat="42.850640" lon="-2.565576"><ele>569.396</ele><time>2018-04-22T11:36:27Z</time></trkpt><trkpt lat="42.850692" lon="-2.565825"><ele>567.524</ele><time>2018-04-22T11:36:40Z</time></trkpt><trkpt lat="42.850654" lon="-2.566079"><ele>567.787</ele><time>2018-04-22T11:36:53Z</time></trkpt><trkpt lat="42.850612" lon="-2.566326"><ele>569.473</ele><time>2018-04-22T11:37:07Z</time></trkpt><trkpt lat="42.850573" lon="-2.566573"><ele>568.512</ele><time>2018-04-22T11:37:26Z</time></trkpt><trkpt lat="42.850511" lon="-2.566820"><ele>570.922</ele><time>2018-04-22T11:37:41Z</time></trkpt><trkpt lat="42.850416" lon="-2.567043"><ele>572.862</ele><time>2018-04-22T11:37:58Z</time></trkpt><trkpt lat="42.850282" lon="-2.567220"><ele>576.323</ele><time>2018-04-22T11:38:13Z</time></trkpt><trkpt lat="42.850136" lon="-2.567377"><ele>582.083</ele><time>2018-04-22T11:38:28Z</time></trkpt><trkpt lat="42.849979" lon="-2.567498"><ele>583.111</ele><time>2018-04-22T11:39:24Z</time></trkpt><trkpt lat="42.849822" lon="-2.567643"><ele>582.508</ele><time>2018-04-22T11:39:36Z</time></trkpt><trkpt lat="42.849654" lon="-2.567765"><ele>583.124</ele><time>2018-04-22T11:39:48Z</time></trkpt><trkpt lat="42.849498" lon="-2.567904"><ele>582.976</ele><time>2018-04-22T11:40:00Z</time></trkpt><trkpt lat="42.849342" lon="-2.568059"><ele>584.874</ele><time>2018-04-22T11:40:13Z</time></trkpt><trkpt lat="42.849184" lon="-2.568190"><ele>589.047</ele><time>2018-04-22T11:40:26Z</time></trkpt><trkpt lat="42.849033" lon="-2.568352"><ele>591.863</ele><time>2018-04-22T11:40:42Z</time></trkpt><trkpt lat="42.848904" lon="-2.568537"><ele>592.122</ele><time>2018-04-22T11:40:56Z</time></trkpt><trkpt lat="42.848756" lon="-2.568691"><ele>592.272</ele><time>2018-04-22T11:41:09Z</time></trkpt><trkpt lat="42.848614" lon="-2.568850"><ele>595.472</ele><time>2018-04-22T11:41:23Z</time></trkpt><trkpt lat="42.848436" lon="-2.568947"><ele>596.369</ele><time>2018-04-22T11:41:36Z</time></trkpt><trkpt lat="42.848249" lon="-2.568967"><ele>597.904</ele><time>2018-04-22T11:41:54Z</time></trkpt><trkpt lat="42.848057" lon="-2.568976"><ele>599.824</ele><time>2018-04-22T11:42:08Z</time></trkpt><trkpt lat="42.847867" lon="-2.569012"><ele>599.208</ele><time>2018-04-22T11:42:22Z</time></trkpt><trkpt lat="42.847690" lon="-2.569073"><ele>601.238</ele><time>2018-04-22T11:42:35Z</time></trkpt><trkpt lat="42.847612" lon="-2.569306"><ele>602.550</ele><time>2018-04-22T11:42:58Z</time></trkpt><trkpt lat="42.847615" lon="-2.569562"><ele>604.248</ele><time>2018-04-22T11:43:15Z</time></trkpt><trkpt lat="42.847634" lon="-2.569818"><ele>608.121</ele><time>2018-04-22T11:43:32Z</time></trkpt><trkpt lat="42.847691" lon="-2.570061"><ele>613.297</ele><time>2018-04-22T11:43:48Z</time></trkpt><trkpt lat="42.847805" lon="-2.570255"><ele>620.876</ele><time>2018-04-22T11:44:13Z</time></trkpt><trkpt lat="42.847985" lon="-2.570286"><ele>617.826</ele><time>2018-04-22T11:44:28Z</time></trkpt><trkpt lat="42.848140" lon="-2.570427"><ele>619.966</ele><time>2018-04-22T11:44:44Z</time></trkpt><trkpt lat="42.848243" lon="-2.570632"><ele>622.121</ele><time>2018-04-22T11:45:02Z</time></trkpt></trkseg></trk></gpx>